M I D A S
Marine Information and Data Acquisition System
Tripno 842 of the Zeeleeuw from 2005-01-26 07:33:00 to 2005-01-26 13:04:23
Back to CruiseResearch ActivitiesStationsMapUnderway DataData graphs

EquipmentUnitsComment
TimeDGPSUTC
LatitudeDGPSDM.mWGS84
LongitudeDGPSDM.mWGS84
TemperatureSBE03/SBE38deg celciusITS90
ConductivitySBE21S/mITS90
SalinitySBE21 Practical Salinity Units
ChlorophylAChelsea fluorimeterg/lCalibrated in Aceton
Missing or incorrect values are displayed as -999
Sea surface data collected by the RV Zeeleeuw from 2005-01-26 07:33:28 to 2005-01-26 13:19:32
                                                                                    Next 1000 lines
Time Latitude Longitude Temperature Conductivity Salinity ChlorophylA
2005-01-26 07:33:38 51°13.595 2°56.098 10.6127 0.056719 0.39389 -0.848668
2005-01-26 07:33:43 51°13.596 2°56.094 10.5919 0.056719 0.393898 -0.882377
2005-01-26 07:33:48 51°13.598 2°56.09 10.6267 0.056719 0.393907 -0.848668
2005-01-26 07:33:53 51°13.599 2°56.086 10.612 0.056719 0.393907 -0.848668
2005-01-26 07:33:58 51°13.6 2°56.082 10.6119 0.056719 0.393916 -0.848668
2005-01-26 07:34:03 51°13.601 2°56.077 10.6065 0.056719 0.393924 -0.882377
2005-01-26 07:34:08 51°13.603 2°56.072 10.6192 0.056719 0.393924 -0.882377
2005-01-26 07:34:13 51°13.604 2°56.067 10.6243 0.056719 0.393933 -0.848668
2005-01-26 07:34:18 51°13.606 2°56.062 10.6151 0.056823 0.394691 -0.882377
2005-01-26 07:34:23 51°13.607 2°56.056 10.5922 0.056823 0.394691 -0.882377
2005-01-26 07:34:28 51°13.609 2°56.05 10.597 0.056719 0.39395 -0.882377
2005-01-26 07:34:32 51°13.61 2°56.045 10.6117 0.056719 0.39395 -0.882377
2005-01-26 07:34:38 51°13.612 2°56.037 10.6189 0.056719 0.39395 -0.882377
2005-01-26 07:34:43 51°13.615 2°56.031 10.6254 0.056719 0.393942 -0.882377
2005-01-26 07:34:48 51°13.617 2°56.024 10.6262 0.056719 0.393959 -0.848668
2005-01-26 07:34:52 51°13.619 2°56.019 10.6372 0.056719 0.393959 -0.848668
2005-01-26 07:34:58 51°13.623 2°56.01 10.6275 0.056719 0.39395 -0.882377
2005-01-26 07:35:03 51°13.625 2°56.003 10.6544 0.056719 0.393959 -0.882377
2005-01-26 07:35:08 51°13.628 2°55.996 10.6486 0.056719 0.393959 -0.882377
2005-01-26 07:35:13 51°13.632 2°55.989 9.3239 0.056719 0.393959 -0.882377
2005-01-26 07:35:18 51°13.634 2°55.983 8.2183 0.056719 0.393465 -0.511574
2005-01-26 07:35:23 51°13.637 2°55.978 6.9803 0.056719 0.393465 -0.511574
2005-01-26 07:35:28 51°13.639 2°55.974 6.4996 0.268448 2.027664 -0.781249
2005-01-26 07:35:32 51°13.639 2°55.972 6.1259 0.300947 2.294091 0.803093
2005-01-26 07:35:38 51°13.64 2°55.97 6.0599 1.030316 8.297463 0.196324
2005-01-26 07:35:43 51°13.641 2°55.967 5.8793 1.327511 10.888407 -0.410446
2005-01-26 07:35:48 51°13.643 2°55.965 5.837 1.712145 14.607579 -0.646411
2005-01-26 07:35:52 51°13.644 2°55.962 5.8206 1.712145 14.607579 -0.646411
2005-01-26 07:35:58 51°13.646 2°55.959 5.7764 2.697254 24.760434 -0.545283
2005-01-26 07:36:03 51°13.647 2°55.958 5.6842 2.777222 26.191451 -0.578993
2005-01-26 07:36:08 51°13.646 2°55.959 5.6112 2.77081 26.646386 -0.511574
2005-01-26 07:36:13 51°13.645 2°55.961 5.5626 2.739776 26.686892 -0.578993
2005-01-26 07:36:18 51°13.644 2°55.964 5.5795 2.721472 26.710121 -0.578993
2005-01-26 07:36:23 51°13.643 2°55.966 5.5982 2.721472 26.710121 -0.578993
2005-01-26 07:36:27 51°13.642 2°55.967 5.5853 2.705271 26.659432 -0.578993
2005-01-26 07:36:33 51°13.642 2°55.968 5.5549 2.688124 26.556941 -0.646411
2005-01-26 07:36:38 51°13.642 2°55.967 5.5075 2.671713 26.443812 -0.646411
2005-01-26 07:36:43 51°13.643 2°55.965 5.5163 2.654251 26.32554 -0.646411
2005-01-26 07:36:47 51°13.644 2°55.963 5.5135 2.634476 26.170794 -0.511574
2005-01-26 07:36:53 51°13.645 2°55.959 5.4579 2.634476 26.170794 -0.511574
2005-01-26 07:36:58 51°13.647 2°55.954 5.4502 2.625746 26.098856 -0.646411
2005-01-26 07:37:03 51°13.649 2°55.949 5.4569 2.61954 26.042406 -0.646411
2005-01-26 07:37:08 51°13.651 2°55.944 5.4326 2.596925 25.815282 -0.545283
2005-01-26 07:37:13 51°13.654 2°55.938 5.435 2.579045 25.646379 -0.578993
2005-01-26 07:37:19 51°13.658 2°55.931 5.454 2.56085 25.463388 -0.612702
2005-01-26 07:37:23 51°13.661 2°55.925 5.439 2.56085 25.463388 -0.612702
2005-01-26 07:37:28 51°13.665 2°55.917 5.4568 2.554119 25.407523 -0.680121
2005-01-26 07:37:33 51°13.669 2°55.91 5.4414 2.55149 25.39775 -0.680121
2005-01-26 07:37:38 51°13.674 2°55.901 5.445 2.569475 25.610941 -0.612702
2005-01-26 07:37:43 51°13.678 2°55.892 5.4626 2.583674 25.779087 -0.680121
2005-01-26 07:37:48 51°13.682 2°55.882 5.4583 2.598715 25.950727 -0.646411
2005-01-26 07:37:53 51°13.686 2°55.873 5.4622 2.598715 25.950727 -0.646411
2005-01-26 07:37:58 51°13.691 2°55.862 5.4399 2.623959 26.225902 -0.646411
2005-01-26 07:38:03 51°13.694 2°55.853 5.4095 2.646154 26.472625 -0.545283
2005-01-26 07:38:08 51°13.698 2°55.841 5.4145 2.659093 26.619123 -0.612702
2005-01-26 07:38:13 51°13.701 2°55.831 5.3922 2.656358 26.590386 -0.646411
2005-01-26 07:38:19 51°13.704 2°55.818 5.394 2.661302 26.64207 -0.646411
2005-01-26 07:38:23 51°13.707 2°55.808 5.3825 2.661302 26.64207 -0.646411
2005-01-26 07:38:28 51°13.709 2°55.796 5.374 2.657515 26.597635 -0.612702
2005-01-26 07:38:33 51°13.711 2°55.784 5.3777 2.631953 26.323257 -0.612702
2005-01-26 07:38:39 51°13.712 2°55.772 5.3505 2.621645 26.220088 -0.646411
2005-01-26 07:38:43 51°13.713 2°55.762 5.3624 2.614177 26.150823 -0.612702
2005-01-26 07:38:48 51°13.714 2°55.75 5.3682 2.615755 26.178312 -0.578993
2005-01-26 07:38:53 51°13.715 2°55.74 5.3574 2.615755 26.178312 -0.578993
2005-01-26 07:38:58 51°13.715 2°55.729 5.3323 2.60997 26.123456 -0.578993
2005-01-26 07:39:03 51°13.715 2°55.722 5.306 2.607551 26.10764 -0.578993
2005-01-26 07:39:07 51°13.716 2°55.718 5.3138 2.623223 26.286288 -0.578993
2005-01-26 07:39:13 51°13.716 2°55.716 5.2993 2.624486 26.309038 -0.612702
2005-01-26 07:39:18 51°13.717 2°55.716 5.2991 2.622382 26.292659 -0.578993
2005-01-26 07:39:23 51°13.718 2°55.718 5.2808 2.622382 26.292659 -0.578993
2005-01-26 07:39:28 51°13.72 2°55.72 5.2759 2.620068 26.270554 -0.578993
2005-01-26 07:39:32 51°13.722 2°55.723 5.2446 2.612284 26.193596 -0.545283
2005-01-26 07:39:38 51°13.726 2°55.726 5.2289 2.594193 26.005074 -0.612702
2005-01-26 07:39:43 51°13.73 2°55.728 5.2331 2.57442 25.794717 -0.612702
2005-01-26 07:39:47 51°13.732 2°55.729 5.2014 2.560747 25.656231 -0.646411
2005-01-26 07:39:53 51°13.734 2°55.73 5.2217 2.560747 25.656231 -0.646411
2005-01-26 07:39:58 51°13.736 2°55.73 5.1945 2.545392 25.492601 -0.612702
2005-01-26 07:40:03 51°13.736 2°55.73 5.2283 2.50911 25.106932 -0.612702
2005-01-26 07:40:08 51°13.735 2°55.729 5.2478 2.470728 24.698569 -0.578993
2005-01-26 07:40:13 51°13.734 2°55.729 5.2314 2.42541 24.215295 -0.545283
2005-01-26 07:40:18 51°13.732 2°55.728 5.2443 2.314501 23.011114 -0.511574
2005-01-26 07:40:23 51°13.73 2°55.728 5.2029 2.314501 23.011114 -0.511574
2005-01-26 07:40:28 51°13.729 2°55.728 5.2173 2.287278 22.722598 -0.545283
2005-01-26 07:40:33 51°13.729 2°55.727 5.2268 2.261107 22.44634 -0.376736
2005-01-26 07:40:38 51°13.73 2°55.727 5.2393 2.306828 22.942487 -0.477864
2005-01-26 07:40:43 51°13.731 2°55.726 5.226 2.314396 23.020136 -0.410446
2005-01-26 07:40:48 51°13.734 2°55.724 5.2301 2.32722 23.158666 -0.410446
2005-01-26 07:40:53 51°13.737 2°55.721 5.2518 2.32722 23.158666 -0.410446
2005-01-26 07:40:58 51°13.741 2°55.717 5.239 2.317024 23.050559 -0.376736
2005-01-26 07:41:03 51°13.746 2°55.712 5.2573 2.334158 23.241546 -0.410446
2005-01-26 07:41:08 51°13.751 2°55.706 5.2596 2.345511 23.364193 -0.444155
2005-01-26 07:41:13 51°13.757 2°55.7 5.2352 2.350031 23.410484 -0.477864
2005-01-26 07:41:18 51°13.763 2°55.693 5.2316 2.376207 23.696985 -0.444155
2005-01-26 07:41:23 51°13.77 2°55.686 5.2268 2.376207 23.696985 -0.444155
2005-01-26 07:41:28 51°13.778 2°55.677 5.2354 2.368953 23.614038 -0.444155
2005-01-26 07:41:33 51°13.785 2°55.67 5.2519 2.364853 23.566195 -0.444155
2005-01-26 07:41:38 51°13.793 2°55.661 5.2639 2.35823 23.490836 -0.444155
2005-01-26 07:41:43 51°13.801 2°55.653 5.2708 2.361489 23.521519 -0.410446
2005-01-26 07:41:48 51°13.811 2°55.644 5.2576 2.37484 23.673434 -0.444155
2005-01-26 07:41:52 51°13.818 2°55.637 5.2756 2.37484 23.673434 -0.444155
2005-01-26 07:41:58 51°13.829 2°55.627 5.2515 2.389243 23.835794 -0.477864
2005-01-26 07:42:03 51°13.838 2°55.62 5.26 2.399021 23.945227 -0.376736
2005-01-26 07:42:08 51°13.849 2°55.611 5.2471 2.421625 24.188307 -0.444155
2005-01-26 07:42:12 51°13.857 2°55.605 5.2533 2.424779 24.215306 -0.477864
2005-01-26 07:42:18 51°13.868 2°55.596 5.2505 2.409324 24.044246 -0.511574
2005-01-26 07:42:23 51°13.878 2°55.588 5.2661 2.409324 24.044246 -0.511574
2005-01-26 07:42:28 51°13.89 2°55.58 5.2569 2.399862 23.93701 -0.444155
2005-01-26 07:42:33 51°13.899 2°55.573 5.2692 2.393974 23.871404 -0.444155
2005-01-26 07:42:38 51°13.911 2°55.565 5.2996 2.409114 24.038199 -0.343027
2005-01-26 07:42:43 51°13.921 2°55.557 5.2778 2.411321 24.066104 -0.511574
2005-01-26 07:42:48 51°13.933 2°55.549 5.2649 2.432139 24.294028 -0.444155
2005-01-26 07:42:53 51°13.943 2°55.542 5.2702 2.432139 24.294028 -0.444155
2005-01-26 07:42:58 51°13.954 2°55.534 5.2824 2.460949 24.611141 -0.477864
2005-01-26 07:43:03 51°13.965 2°55.526 5.2758 2.487868 24.904747 -0.477864
2005-01-26 07:43:07 51°13.975 2°55.519 5.2881 2.514474 25.190684 -0.477864
2005-01-26 07:43:12 51°13.986 2°55.511 5.2821 2.542763 25.492107 -0.578993
2005-01-26 07:43:18 51°13.999 2°55.502 5.2762 2.569897 25.791053 -0.444155
2005-01-26 07:43:23 51°14.009 2°55.495 5.2663 2.569897 25.791053 -0.444155
2005-01-26 07:43:27 51°14.018 2°55.488 5.3085 2.588935 26.005086 -0.545283
2005-01-26 07:43:32 51°14.031 2°55.48 5.2815 2.61786 26.321841 -0.545283
2005-01-26 07:43:38 51°14.043 2°55.471 5.2872 2.625959 26.412062 -0.545283
2005-01-26 07:43:43 51°14.054 2°55.463 5.2847 2.637425 26.537496 -0.578993
2005-01-26 07:43:48 51°14.067 2°55.454 5.3206 2.654045 26.71936 -0.511574
2005-01-26 07:43:52 51°14.077 2°55.448 5.2986 2.654045 26.71936 -0.511574
2005-01-26 07:43:58 51°14.091 2°55.438 5.3146 2.672665 26.929795 -0.477864
2005-01-26 07:44:03 51°14.103 2°55.429 5.2692 2.662987 26.818377 -0.511574
2005-01-26 07:44:08 51°14.115 2°55.42 5.2878 2.693705 27.154651 -0.612702
2005-01-26 07:44:12 51°14.125 2°55.413 5.2545 2.707803 27.313194 -0.511574
2005-01-26 07:44:18 51°14.14 2°55.401 5.26 2.686867 27.077412 -0.511574
2005-01-26 07:44:23 51°14.151 2°55.392 5.2514 2.686867 27.077412 -0.511574
2005-01-26 07:44:28 51°14.164 2°55.38 5.2278 2.7037 27.261285 -0.545283
2005-01-26 07:44:33 51°14.175 2°55.369 5.2408 2.703279 27.254494 -0.511574
2005-01-26 07:44:38 51°14.186 2°55.357 5.2266 2.68834 27.097259 -0.545283
2005-01-26 07:44:43 51°14.197 2°55.343 5.2173 2.699176 27.221696 -0.646411
2005-01-26 07:44:47 51°14.207 2°55.331 5.2429 2.686867 27.094996 -0.578993
2005-01-26 07:44:52 51°14.217 2°55.316 5.2245 2.686867 27.094996 -0.578993
2005-01-26 07:44:58 51°14.231 2°55.299 5.2112 2.679609 27.016583 -0.410446
2005-01-26 07:45:03 51°14.24 2°55.286 5.2314 2.668037 26.897358 -0.477864
2005-01-26 07:45:08 51°14.252 2°55.269 5.2272 2.663513 26.857675 -0.444155
2005-01-26 07:45:12 51°14.26 2°55.257 5.2254 2.661725 26.843425 -0.444155
2005-01-26 07:45:18 51°14.271 2°55.239 5.2037 2.657517 26.80094 -0.545283
2005-01-26 07:45:23 51°14.281 2°55.222 5.1962 2.657517 26.80094 -0.545283
2005-01-26 07:45:28 51°14.292 2°55.204 5.1874 2.631745 26.513216 -0.545283
2005-01-26 07:45:32 51°14.3 2°55.19 5.2185 2.622909 26.421558 -0.477864
2005-01-26 07:45:38 51°14.311 2°55.169 5.2191 2.621858 26.411971 -0.477864
2005-01-26 07:45:43 51°14.32 2°55.153 5.1979 2.621121 26.404504 -0.444155
2005-01-26 07:45:48 51°14.33 2°55.134 5.2067 2.63448 26.55525 -0.477864
2005-01-26 07:45:52 51°14.337 2°55.12 5.2185 2.63448 26.55525 -0.477864
2005-01-26 07:45:58 51°14.347 2°55.099 5.2373 2.643001 26.656632 -0.444155
2005-01-26 07:46:03 51°14.357 2°55.08 5.1961 2.66709 26.932356 -0.343027
2005-01-26 07:46:08 51°14.365 2°55.061 5.1785 2.670667 26.967873 -0.376736
2005-01-26 07:46:12 51°14.372 2°55.045 5.1339 2.68024 27.07 -0.14077
2005-01-26 07:46:18 51°14.381 2°55.021 5.155 2.702648 27.318398 -0.14077
2005-01-26 07:46:23 51°14.387 2°55.001 5.1588 2.702648 27.318398 -0.14077
2005-01-26 07:46:28 51°14.394 2°54.977 5.0443 2.702648 27.319109 -0.107061
2005-01-26 07:46:33 51°14.4 2°54.956 5.0266 2.712117 27.418744 -0.241899
2005-01-26 07:46:38 51°14.407 2°54.932 4.9937 2.724321 27.561742 -0.005933
2005-01-26 07:46:43 51°14.413 2°54.911 4.9421 2.731265 27.655638 -0.073352
2005-01-26 07:46:48 51°14.419 2°54.888 4.8869 2.723059 27.586461 -0.039642
2005-01-26 07:46:52 51°14.424 2°54.865 4.857 2.723059 27.586461 -0.039642
2005-01-26 07:46:58 51°14.43 2°54.836 4.7992 2.753255 27.935805 -0.107061
2005-01-26 07:47:03 51°14.434 2°54.809 4.7766 2.743365 27.847124 0.162614
2005-01-26 07:47:07 51°14.436 2°54.792 4.7471 2.746522 27.915926 0.128905
2005-01-26 07:47:13 51°14.442 2°54.759 4.7375 2.749679 27.983438 -0.005933
2005-01-26 07:47:18 51°14.447 2°54.73 4.7271 2.758623 28.121215 0.196324
2005-01-26 07:47:23 51°14.449 2°54.705 4.7395 2.758623 28.121215 0.196324
2005-01-26 07:47:28 51°14.452 2°54.677 4.7703 2.754309 28.115536 -0.039642
2005-01-26 07:47:33 51°14.455 2°54.649 4.8114 2.771145 28.336095 0.465999
2005-01-26 07:47:38 51°14.456 2°54.621 4.8039 2.808184 28.807393 0.465999
2005-01-26 07:47:43 51°14.457 2°54.591 4.8207 2.818602 28.963334 0.465999
2005-01-26 07:47:48 51°14.457 2°54.558 4.8103 2.867747 29.545521 0.93793
2005-01-26 07:47:53 51°14.457 2°54.53 4.8422 2.867747 29.545521 0.93793
2005-01-26 07:47:58 51°14.454 2°54.497 4.8542 2.881113 29.707632 0.836802
2005-01-26 07:48:03 51°14.453 2°54.469 4.8701 2.90353 29.957196 0.735674
2005-01-26 07:48:08 51°14.449 2°54.438 4.8667 2.921948 30.147857 0.567127
2005-01-26 07:48:13 51°14.445 2°54.407 4.8846 2.938894 30.329688 0.432289
2005-01-26 07:48:18 51°14.44 2°54.373 4.9109 2.950682 30.455185 0.331161
2005-01-26 07:48:23 51°14.436 2°54.346 4.9153 2.950682 30.455185 0.331161
2005-01-26 07:48:27 51°14.43 2°54.319 4.9445 2.97205 30.690707 0.567127
2005-01-26 07:48:33 51°14.423 2°54.283 4.9633 2.959629 30.533804 2.117759
2005-01-26 07:48:38 51°14.415 2°54.255 4.953 2.957629 30.494145 1.645828
2005-01-26 07:48:43 51°14.41 2°54.228 4.9656 2.971102 30.641925 2.758238
2005-01-26 07:48:48 51°14.4 2°54.198 4.9835 2.98647 30.803236 1.5447
2005-01-26 07:48:53 51°14.393 2°54.168 4.983 2.98647 30.803236 1.5447
2005-01-26 07:48:58 51°14.383 2°54.138 4.9858 2.981628 30.729472 2.08405
2005-01-26 07:49:03 51°14.376 2°54.112 4.9886 2.996891 30.88703 2.926785
2005-01-26 07:49:08 51°14.363 2°54.081 5.0119 2.984891 30.735087 1.5447
2005-01-26 07:49:12 51°14.356 2°54.059 5.0001 2.989312 30.776478 2.353725
2005-01-26 07:49:18 51°14.343 2°54.03 4.9969 3.01247 31.029397 3.027913
2005-01-26 07:49:23 51°14.331 2°54.004 4.9996 3.01247 31.029397 3.027913
2005-01-26 07:49:28 51°14.319 2°53.974 4.993 2.991522 30.779787 2.185178
2005-01-26 07:49:33 51°14.307 2°53.951 4.9939 3.01268 31.011433 2.454853
2005-01-26 07:49:38 51°14.295 2°53.922 4.9894 3.010891 30.984574 2.960494
2005-01-26 07:49:43 51°14.283 2°53.899 5 2.994259 30.789881 2.421144
2005-01-26 07:49:48 51°14.271 2°53.87 4.9992 2.999838 30.848408 2.690819
2005-01-26 07:49:53 51°14.26 2°53.847 4.9994 2.999838 30.848408 2.690819
2005-01-26 07:49:58 51°14.249 2°53.819 4.9989 3.016259 31.036669 2.488563
2005-01-26 07:50:03 51°14.238 2°53.792 5.0044 3.021944 31.101312 2.185178
2005-01-26 07:50:08 51°14.229 2°53.76 5.0377 3.015417 31.02628 2.758238
2005-01-26 07:50:12 51°14.222 2°53.737 5.0215 3.01068 30.972429 1.814375
2005-01-26 07:50:18 51°14.212 2°53.705 5.1044 3.017838 31.048109 3.365007
2005-01-26 07:50:23 51°14.201 2°53.675 5.0097 3.017838 31.048109 3.365007
2005-01-26 07:50:28 51°14.194 2°53.645 5.0081 3.003943 30.887761 2.421144
2005-01-26 07:50:33 51°14.185 2°53.618 5.0052 3.02447 31.121885 2.791947
2005-01-26 07:50:38 51°14.175 2°53.587 4.9998 3.014259 31.002544 2.589691
2005-01-26 07:50:43 51°14.166 2°53.558 4.9984 3.002995 30.86405 2.791947
2005-01-26 07:50:47 51°14.158 2°53.538 5.0198 3.021628 31.068384 3.095332
2005-01-26 07:50:53 51°14.147 2°53.504 5.0023 3.021628 31.068384 3.095332
2005-01-26 07:50:58 51°14.135 2°53.473 4.9994 3.015206 30.988937 1.848084
2005-01-26 07:51:03 51°14.125 2°53.449 5.0014 3.009733 30.940561 3.027913
2005-01-26 07:51:08 51°14.113 2°53.421 4.9899 3.001627 30.855791 2.151469
2005-01-26 07:51:13 51°14.102 2°53.393 4.9863 3.021523 31.084293 2.926785
2005-01-26 07:51:18 51°14.09 2°53.363 4.9919 3.022681 31.10072 2.791947
2005-01-26 07:51:23 51°14.08 2°53.338 4.9932 3.022681 31.10072 2.791947
2005-01-26 07:51:28 51°14.069 2°53.306 5.0092 3.024891 31.124225 2.926785
2005-01-26 07:51:33 51°14.061 2°53.279 4.9919 3.020049 31.072427 3.331298
2005-01-26 07:51:38 51°14.052 2°53.249 4.9973 3.02047 31.07966 2.690819
2005-01-26 07:51:43 51°14.043 2°53.219 4.9949 3.021628 31.09772 3.19646
2005-01-26 07:51:47 51°14.036 2°53.191 4.9974 3.021102 31.094181 2.960494
2005-01-26 07:51:53 51°14.027 2°53.157 4.9937 3.021102 31.094181 2.960494
2005-01-26 07:51:58 51°14.017 2°53.125 4.9999 3.01468 31.020343 3.432426
2005-01-26 07:52:03 51°14.009 2°53.097 4.9849 3.020786 31.086512 2.893076
2005-01-26 07:52:08 51°13.998 2°53.066 4.9886 3.011838 30.982341 2.758238
2005-01-26 07:52:12 51°13.991 2°53.042 4.9841 3.018786 31.062953 3.331298
2005-01-26 07:52:18 51°13.978 2°53.007 4.9844 3.019523 31.071332 3.19646
2005-01-26 07:52:23 51°13.967 2°52.983 4.9846 3.019523 31.071332 3.19646
2005-01-26 07:52:28 51°13.955 2°52.951 4.9874 3.015101 31.021876 2.454853
2005-01-26 07:52:33 51°13.944 2°52.926 4.9872 3.005522 30.912994 2.724529
2005-01-26 07:52:38 51°13.932 2°52.895 4.9903 3.009628 30.9629 3.162751
2005-01-26 07:52:43 51°13.919 2°52.867 4.9919 3.022365 31.110998 2.589691
2005-01-26 07:52:47 51°13.913 2°52.846 4.9954 3.024997 31.144205 3.297589
2005-01-26 07:52:53 51°13.898 2°52.809 4.9949 3.024997 31.144205 3.297589
2005-01-26 07:52:58 51°13.888 2°52.779 4.9984 3.003522 30.900804 2.926785
2005-01-26 07:53:03 51°13.877 2°52.752 5.0127 3.01826 31.067561 2.387435
2005-01-26 07:53:08 51°13.868 2°52.722 4.9929 3.004996 30.915933 3.263879
2005-01-26 07:53:13 51°13.856 2°52.693 4.9989 3.016365 31.042752 2.555982
2005-01-26 07:53:18 51°13.844 2°52.662 4.9946 3.027208 31.164453 2.353725
2005-01-26 07:53:23 51°13.833 2°52.633 4.9924 3.027208 31.164453 2.353725
2005-01-26 07:53:27 51°13.825 2°52.613 4.9899 3.021312 31.094944 2.690819
2005-01-26 07:53:32 51°13.812 2°52.58 5.0067 3.018575 31.062188 2.65711
2005-01-26 07:53:38 51°13.799 2°52.547 4.9978 3.02047 31.080475 2.926785
2005-01-26 07:53:43 51°13.788 2°52.523 4.985 3.019733 31.070466 2.690819
2005-01-26 07:53:48 51°13.775 2°52.491 4.9904 3.025628 31.141587 2.994204
2005-01-26 07:53:52 51°13.766 2°52.467 4.9851 3.025628 31.141587 2.994204
2005-01-26 07:53:58 51°13.754 2°52.436 4.9815 3.030681 31.199889 2.555982
2005-01-26 07:54:03 51°13.741 2°52.404 4.9863 3.024155 31.128089 2.690819
2005-01-26 07:54:08 51°13.731 2°52.373 4.9899 3.025313 31.138811 2.960494
2005-01-26 07:54:12 51°13.723 2°52.35 4.9983 3.028471 31.175555 2.218888
2005-01-26 07:54:18 51°13.712 2°52.316 5.0174 3.022365 31.109365 3.331298
2005-01-26 07:54:23 51°13.704 2°52.287 5.0125 3.022365 31.109365 3.331298
2005-01-26 07:54:28 51°13.692 2°52.254 5.045 3.020576 31.092273 1.949212
2005-01-26 07:54:33 51°13.684 2°52.226 5.0482 3.009207 30.964612 3.971777
2005-01-26 07:54:38 51°13.673 2°52.192 5.048 3.016891 31.051996 3.533554
2005-01-26 07:54:43 51°13.666 2°52.163 5.0484 3.013944 31.016033 4.140324
2005-01-26 07:54:48 51°13.655 2°52.131 5.0527 3.010891 30.975634 3.80323
2005-01-26 07:54:53 51°13.649 2°52.098 5.0626 3.010891 30.975634 3.80323
2005-01-26 07:54:58 51°13.637 2°52.07 5.0685 3.010259 30.959522 4.174033
2005-01-26 07:55:03 51°13.63 2°52.041 5.072 3.000574 30.838177 3.836939
2005-01-26 07:55:07 51°13.62 2°52.015 5.0703 3.014891 30.991846 3.735811
2005-01-26 07:55:13 51°13.607 2°51.981 5.0778 3.031523 31.172677 3.938067
2005-01-26 07:55:18 51°13.596 2°51.952 5.0796 3.032892 31.180879 4.072905
2005-01-26 07:55:23 51°13.587 2°51.925 5.0792 3.032892 31.180879 4.072905
2005-01-26 07:55:28 51°13.576 2°51.897 5.0795 3.027944 31.118146 4.072905
2005-01-26 07:55:33 51°13.566 2°51.866 5.0901 3.019627 31.013154 3.80323
2005-01-26 07:55:38 51°13.555 2°51.833 5.0877 3.035102 31.186398 3.971777
2005-01-26 07:55:43 51°13.546 2°51.807 5.0902 3.046893 31.3187 3.735811
2005-01-26 07:55:48 51°13.535 2°51.774 5.0931 3.04205 31.261227 3.80323
2005-01-26 07:55:52 51°13.527 2°51.749 5.0986 3.04205 31.261227 3.80323
2005-01-26 07:55:58 51°13.516 2°51.716 5.1018 3.044366 31.283443 3.76952
2005-01-26 07:56:03 51°13.507 2°51.686 5.0989 3.046156 31.301315 3.80323
2005-01-26 07:56:08 51°13.495 2°51.654 5.0975 3.027733 31.088892 3.533554
2005-01-26 07:56:12 51°13.487 2°51.63 5.1046 3.046893 31.302315 3.76952
2005-01-26 07:56:18 51°13.475 2°51.593 5.0986 3.050683 31.34372 3.634683
2005-01-26 07:56:23 51°13.467 2°51.566 5.0895 3.050683 31.34372 3.634683
2005-01-26 07:56:28 51°13.455 2°51.538 5.0909 3.041945 31.241228 3.80323
2005-01-26 07:56:33 51°13.446 2°51.506 5.09 3.041313 31.23079 3.836939
2005-01-26 07:56:38 51°13.434 2°51.475 5.0851 3.053525 31.367803 3.76952
2005-01-26 07:56:43 51°13.425 2°51.447 5.0851 3.041524 31.232363 3.904358
2005-01-26 07:56:48 51°13.414 2°51.415 5.0914 3.053104 31.36138 3.904358
2005-01-26 07:56:53 51°13.405 2°51.388 5.091 3.053104 31.36138 3.904358
2005-01-26 07:56:58 51°13.395 2°51.358 5.0845 3.05163 31.346283 3.904358
2005-01-26 07:57:03 51°13.386 2°51.328 5.0838 3.055209 31.389395 4.005486
2005-01-26 07:57:08 51°13.374 2°51.295 5.09 3.043419 31.256324 4.039195
2005-01-26 07:57:13 51°13.366 2°51.266 5.0848 3.046787 31.297845 4.140324
2005-01-26 07:57:18 51°13.354 2°51.235 5.0957 3.035313 31.168395 4.039195
2005-01-26 07:57:23 51°13.345 2°51.209 5.0947 3.035313 31.168395 4.039195
2005-01-26 07:57:28 51°13.334 2°51.178 5.088 3.04405 31.266766 4.005486
2005-01-26 07:57:33 51°13.323 2°51.15 5.0841 3.043313 31.260034 4.275161
2005-01-26 07:57:38 51°13.311 2°51.117 5.0837 3.050367 31.340133 4.207742
2005-01-26 07:57:43 51°13.301 2°51.09 5.0871 3.050472 31.342968 4.106614
2005-01-26 07:57:48 51°13.289 2°51.058 5.0805 3.048051 31.31301 4.241452
2005-01-26 07:57:53 51°13.279 2°51.031 5.0773 3.048051 31.31301 4.241452
2005-01-26 07:57:58 51°13.267 2°50.999 5.0754 3.048682 31.319364 4.072905
2005-01-26 07:58:03 51°13.257 2°50.976 5.0761 3.046261 31.292686 4.174033
2005-01-26 07:58:08 51°13.244 2°50.942 5.0758 3.041103 31.236569 4.005486
2005-01-26 07:58:12 51°13.235 2°50.918 5.0741 3.047314 31.306279 4.140324
2005-01-26 07:58:18 51°13.222 2°50.887 5.0674 3.039629 31.220653 4.106614
2005-01-26 07:58:23 51°13.21 2°50.86 5.0729 3.039629 31.220653 4.106614
2005-01-26 07:58:28 51°13.197 2°50.83 5.0718 3.033944 31.159383 3.971777
2005-01-26 07:58:33 51°13.186 2°50.801 5.0607 3.034892 31.1734 4.072905
2005-01-26 07:58:38 51°13.174 2°50.77 5.0633 3.051104 31.357525 4.072905
2005-01-26 07:58:43 51°13.164 2°50.742 5.0674 3.047103 31.313717 4.106614
2005-01-26 07:58:48 51°13.152 2°50.709 5.0671 3.052788 31.380769 4.039195
2005-01-26 07:58:52 51°13.143 2°50.685 5.0695 3.052788 31.380769 4.039195
2005-01-26 07:58:58 51°13.132 2°50.648 5.0594 3.042471 31.265192 4.140324
2005-01-26 07:59:03 51°13.123 2°50.621 5.057 3.037945 31.215412 4.039195
2005-01-26 07:59:08 51°13.111 2°50.588 5.0606 3.048998 31.343446 4.140324
2005-01-26 07:59:12 51°13.102 2°50.564 5.0594 3.044156 31.287601 4.140324
2005-01-26 07:59:18 51°13.09 2°50.528 5.0619 3.050156 31.355785 4.207742
2005-01-26 07:59:23 51°13.079 2°50.501 5.0639 3.050156 31.355785 4.207742
2005-01-26 07:59:28 51°13.069 2°50.466 5.062 3.045419 31.299496 4.241452
2005-01-26 07:59:33 51°13.058 2°50.435 5.0669 3.043208 31.276837 4.140324
2005-01-26 07:59:38 51°13.049 2°50.404 5.0573 3.032049 31.154991 4.140324
2005-01-26 07:59:43 51°13.04 2°50.376 5.0599 3.035208 31.191675 4.174033
2005-01-26 07:59:48 51°13.03 2°50.345 5.0513 3.05321 31.398701 4.072905
2005-01-26 07:59:52 51°13.022 2°50.317 5.0519 3.05321 31.398701 4.072905
2005-01-26 07:59:58 51°13.009 2°50.281 5.049 3.048893 31.347172 4.005486
2005-01-26 08:00:03 51°12.999 2°50.253 5.0442 3.047314 31.329225 3.938067
2005-01-26 08:00:08 51°12.988 2°50.219 5.0447 3.038682 31.23032 3.904358
2005-01-26 08:00:12 51°12.979 2°50.195 5.0467 3.027417 31.103209 3.702101
2005-01-26 08:00:18 51°12.966 2°50.158 5.0514 3.041103 31.2611 3.870648
2005-01-26 08:00:23 51°12.955 2°50.132 5.0506 3.041103 31.2611 3.870648
2005-01-26 08:00:28 51°12.942 2°50.099 5.0441 3.032049 31.162332 3.668392
2005-01-26 08:00:32 51°12.933 2°50.074 5.0434 3.047841 31.343412 3.904358
2005-01-26 08:00:38 51°12.92 2°50.039 5.0497 3.044261 31.306004 3.76952
2005-01-26 08:00:43 51°12.908 2°50.009 5.0565 3.045419 31.321629 3.702101
2005-01-26 08:00:47 51°12.901 2°49.987 5.0471 3.046472 31.333598 3.600973
2005-01-26 08:00:53 51°12.885 2°49.949 5.0457 3.046472 31.333598 3.600973
2005-01-26 08:00:58 51°12.874 2°49.923 5.0493 3.044472 31.310857 3.836939
2005-01-26 08:01:03 51°12.864 2°49.893 5.048 3.045103 31.318038 3.836939
2005-01-26 08:01:08 51°12.851 2°49.861 5.0538 3.04584 31.328057 3.702101
2005-01-26 08:01:13 51°12.841 2°49.833 5.0536 3.042472 31.288119 3.836939
2005-01-26 08:01:18 51°12.828 2°49.8 5.0558 3.050578 31.376996 3.76952
2005-01-26 08:01:23 51°12.818 2°49.773 5.0501 3.050578 31.376996 3.76952
2005-01-26 08:01:28 51°12.807 2°49.74 5.0494 3.041629 31.277726 3.668392
2005-01-26 08:01:33 51°12.796 2°49.71 5.0497 3.046367 31.33158 3.466136
2005-01-26 08:01:38 51°12.786 2°49.679 5.0504 3.047209 31.341155 3.432426
2005-01-26 08:01:43 51°12.777 2°49.651 5.0557 3.046577 31.332333 3.331298
2005-01-26 08:01:48 51°12.767 2°49.621 5.0557 3.043208 31.291579 3.297589
2005-01-26 08:01:53 51°12.755 2°49.591 5.0588 3.043208 31.291579 3.297589
2005-01-26 08:01:58 51°12.745 2°49.557 5.0625 3.031734 31.159561 2.893076
2005-01-26 08:02:03 51°12.735 2°49.531 5.0583 3.046367 31.328298 3.398717
2005-01-26 08:02:08 51°12.723 2°49.497 5.055 3.037103 31.226278 3.19646
2005-01-26 08:02:13 51°12.711 2°49.472 5.0652 3.047946 31.34625 2.893076
2005-01-26 08:02:18 51°12.702 2°49.436 5.052 3.031102 31.153202 3.398717
2005-01-26 08:02:23 51°12.691 2°49.41 5.0518 3.031102 31.153202 3.398717
2005-01-26 08:02:28 51°12.681 2°49.379 5.0516 3.032681 31.170323 3.19646
2005-01-26 08:02:32 51°12.672 2°49.351 5.0545 3.037734 31.223644 3.19646
2005-01-26 08:02:38 51°12.66 2°49.315 5.0452 3.048367 31.345292 3.23017
2005-01-26 08:02:43 51°12.651 2°49.287 5.0454 3.050051 31.366082 3.162751
2005-01-26 08:02:48 51°12.638 2°49.254 5.0453 3.046472 31.322933 3.027913
2005-01-26 08:02:52 51°12.63 2°49.229 5.0466 3.046472 31.322933 3.027913
2005-01-26 08:02:58 51°12.617 2°49.193 5.0477 3.043945 31.295857 3.061623
2005-01-26 08:03:03 51°12.607 2°49.167 5.0442 3.046472 31.327034 2.994204
2005-01-26 08:03:08 51°12.594 2°49.136 5.0459 3.050262 31.373405 2.859366
2005-01-26 08:03:12 51°12.585 2°49.111 5.0548 3.046577 31.333153 2.994204
2005-01-26 08:03:18 51°12.572 2°49.078 5.0488 3.050578 31.381105 2.893076
2005-01-26 08:03:23 51°12.562 2°49.048 5.049 3.050578 31.381105 2.893076
2005-01-26 08:03:28 51°12.549 2°49.015 5.0493 3.042156 31.285348 3.027913
2005-01-26 08:03:32 51°12.541 2°48.99 5.0484 3.046156 31.332469 2.926785
2005-01-26 08:03:38 51°12.528 2°48.954 5.0485 3.050999 31.387538 2.893076
2005-01-26 08:03:43 51°12.517 2°48.927 5.0482 3.043314 31.300152 2.960494
2005-01-26 08:03:48 51°12.507 2°48.892 5.0446 3.049841 31.372724 2.859366
2005-01-26 08:03:53 51°12.497 2°48.865 5.0526 3.049841 31.372724 2.859366
2005-01-26 08:03:58 51°12.483 2°48.834 5.0618 3.048051 31.351552 2.859366
2005-01-26 08:04:03 51°12.474 2°48.806 5.0599 3.037313 31.228671 2.758238
2005-01-26 08:04:08 51°12.459 2°48.775 5.0695 3.048788 31.35911 2.6234
2005-01-26 08:04:12 51°12.452 2°48.75 5.0521 3.044051 31.30525 2.825657
2005-01-26 08:04:18 51°12.437 2°48.714 5.0591 3.038471 31.241013 2.6234
2005-01-26 08:04:23 51°12.43 2°48.685 5.0564 3.038471 31.241013 2.6234
2005-01-26 08:04:28 51°12.417 2°48.652 5.049 3.038892 31.246617 2.724529
2005-01-26 08:04:32 51°12.41 2°48.625 5.0521 3.047525 31.340642 2.690819
2005-01-26 08:04:38 51°12.398 2°48.589 5.0471 3.052578 31.394808 2.690819
2005-01-26 08:04:43 51°12.388 2°48.561 5.0471 3.044893 31.305806 2.791947
2005-01-26 08:04:48 51°12.377 2°48.526 5.0507 3.046682 31.325326 2.825657
2005-01-26 08:04:53 51°12.366 2°48.5 5.0522 3.046682 31.325326 2.825657
2005-01-26 08:04:58 51°12.354 2°48.467 5.0478 3.046156 31.319344 2.690819
2005-01-26 08:05:03 51°12.343 2°48.44 5.0495 3.043314 31.289498 2.926785
2005-01-26 08:05:08 51°12.332 2°48.406 5.0477 3.047419 31.338625 3.027913
2005-01-26 08:05:12 51°12.322 2°48.383 5.0458 3.035629 31.206261 2.791947
2005-01-26 08:05:18 51°12.309 2°48.347 5.047 3.043419 31.29807 3.162751
2005-01-26 08:05:23 51°12.299 2°48.319 5.0461 3.043419 31.29807 3.162751
2005-01-26 08:05:28 51°12.287 2°48.286 5.047 3.04584 31.325596 3.263879
2005-01-26 08:05:33 51°12.276 2°48.26 5.0468 3.052473 31.400188 3.365007
2005-01-26 08:05:38 51°12.265 2°48.226 5.0445 3.051104 31.382981 3.432426
2005-01-26 08:05:43 51°12.255 2°48.195 5.0477 3.040471 31.263745 3.466136
2005-01-26 08:05:48 51°12.244 2°48.165 5.0487 3.03205 31.168861 3.432426
2005-01-26 08:05:53 51°12.234 2°48.133 5.0479 3.03205 31.168861 3.432426
2005-01-26 08:05:58 51°12.223 2°48.104 5.049 3.046156 31.330827 3.702101
2005-01-26 08:06:03 51°12.214 2°48.076 5.0538 3.049104 31.363523 3.634683
2005-01-26 08:06:08 51°12.201 2°48.043 5.0493 3.045419 31.322449 3.76952
2005-01-26 08:06:12 51°12.192 2°48.018 5.0521 3.049314 31.366739 3.735811
2005-01-26 08:06:18 51°12.182 2°47.983 5.0501 3.050367 31.377888 3.80323
2005-01-26 08:06:23 51°12.171 2°47.953 5.0474 3.050367 31.377888 3.80323
2005-01-26 08:06:27 51°12.163 2°47.929 5.0485 3.043945 31.304873 3.76952
2005-01-26 08:06:32 51°12.15 2°47.895 5.0536 3.040261 31.262171 3.702101
2005-01-26 08:06:38 51°12.137 2°47.86 5.0561 3.033944 31.188757 3.735811
2005-01-26 08:06:43 51°12.126 2°47.829 5.0589 3.042998 31.291644 3.80323
2005-01-26 08:06:48 51°12.116 2°47.799 5.0607 3.041945 31.278859 3.735811
2005-01-26 08:06:53 51°12.105 2°47.771 5.0597 3.041945 31.278859 3.735811
2005-01-26 08:06:58 51°12.094 2°47.737 5.0591 3.050578 31.378639 3.938067
2005-01-26 08:07:03 51°12.084 2°47.711 5.0562 3.046683 31.33435 3.702101
2005-01-26 08:07:08 51°12.072 2°47.677 5.0535 3.046051 31.325528 4.039195
2005-01-26 08:07:13 51°12.064 2°47.649 5.0541 3.053525 31.408871 4.039195
2005-01-26 08:07:18 51°12.052 2°47.616 5.0567 3.04763 31.340198 4.005486
2005-01-26 08:07:23 51°12.042 2°47.587 5.0641 3.04763 31.340198 4.005486
2005-01-26 08:07:28 51°12.033 2°47.556 5.0628 3.052367 31.391592 4.174033
2005-01-26 08:07:33 51°12.021 2°47.527 5.0614 3.049314 31.356062 4.106614
2005-01-26 08:07:38 51°12.012 2°47.496 5.0625 3.050051 31.366082 4.174033
2005-01-26 08:07:43 51°12 2°47.462 5.0631 3.048893 31.354559 4.241452
2005-01-26 08:07:48 51°11.989 2°47.431 5.067 3.046893 31.331 4.275161
2005-01-26 08:07:52 51°11.982 2°47.406 5.0702 3.046893 31.331 4.275161
2005-01-26 08:07:58 51°11.97 2°47.373 5.0676 3.039945 31.251215 4.005486
2005-01-26 08:08:03 51°11.958 2°47.345 5.0675 3.048788 31.348437 4.308871
2005-01-26 08:08:08 51°11.947 2°47.316 5.0696 3.05142 31.377534 4.308871
2005-01-26 08:08:13 51°11.937 2°47.284 5.0757 3.052051 31.383071 4.409999
2005-01-26 08:08:18 51°11.925 2°47.253 5.0808 3.050262 31.362728 4.241452
2005-01-26 08:08:23 51°11.916 2°47.225 5.0829 3.050262 31.362728 4.241452
2005-01-26 08:08:28 51°11.905 2°47.191 5.0876 3.03405 31.17689 4.544836
2005-01-26 08:08:33 51°11.896 2°47.16 5.0927 3.049104 31.347103 4.578546
2005-01-26 08:08:38 51°11.887 2°47.134 5.0967 3.042893 31.276523 4.544836
2005-01-26 08:08:43 51°11.878 2°47.103 5.1029 3.035734 31.193571 4.747093
2005-01-26 08:08:47 51°11.868 2°47.081 5.1069 3.050999 31.362073 4.780802
2005-01-26 08:08:53 51°11.857 2°47.039 5.1114 3.050999 31.362073 4.780802
2005-01-26 08:08:58 51°11.845 2°47.011 5.1104 3.052367 31.371879 4.88193
2005-01-26 08:09:03 51°11.837 2°46.983 5.1152 3.051209 31.35544 5.286443
2005-01-26 08:09:07 51°11.828 2°46.956 5.1148 3.054051 31.383629 5.522409
2005-01-26 08:09:12 51°11.819 2°46.925 5.1133 3.053736 31.376758 5.421281
2005-01-26 08:09:18 51°11.808 2°46.888 5.1135 3.054999 31.385362 5.623537
2005-01-26 08:09:23 51°11.799 2°46.862 5.114 3.054999 31.385362 5.623537
2005-01-26 08:09:27 51°11.791 2°46.837 5.1134 3.053946 31.366843 5.657247
2005-01-26 08:09:32 51°11.781 2°46.803 5.1135 3.058157 31.410558 5.657247
2005-01-26 08:09:38 51°11.767 2°46.769 5.1143 3.054157 31.362675 4.780802
2005-01-26 08:09:43 51°11.759 2°46.737 5.1167 3.060052 31.42797 5.623537
2005-01-26 08:09:48 51°11.748 2°46.707 5.1097 3.050472 31.319211 5.623537
2005-01-26 08:09:53 51°11.739 2°46.68 5.1139 3.050472 31.319211 5.623537
2005-01-26 08:09:58 51°11.728 2°46.647 5.1109 3.061947 31.449489 5.724665
2005-01-26 08:10:03 51°11.719 2°46.621 5.105 3.059315 31.419602 5.792084
2005-01-26 08:10:08 51°11.708 2°46.588 5.105 3.051735 31.332731 5.623537
2005-01-26 08:10:13 51°11.698 2°46.558 5.1051 3.057946 31.4016 5.825794
2005-01-26 08:10:18 51°11.687 2°46.529 5.1046 3.047524 31.283304 5.758375
2005-01-26 08:10:23 51°11.679 2°46.5 5.1034 3.047524 31.283304 5.758375
2005-01-26 08:10:28 51°11.67 2°46.47 5.1071 3.051735 31.33355 5.893212
2005-01-26 08:10:33 51°11.661 2°46.44 5.1052 3.045734 31.266265 5.859503
2005-01-26 08:10:38 51°11.65 2°46.411 5.1048 3.05163 31.335631 5.758375
2005-01-26 08:10:43 51°11.641 2°46.38 5.1093 3.056052 31.388291 5.926922
2005-01-26 08:10:48 51°11.631 2°46.347 5.1075 3.061526 31.450461 5.926922
2005-01-26 08:10:53 51°11.622 2°46.32 5.1064 3.061526 31.450461 5.926922
2005-01-26 08:10:58 51°11.612 2°46.289 5.1105 3.064368 31.483572 5.893212
2005-01-26 08:11:03 51°11.604 2°46.259 5.1082 3.062158 31.456813 5.792084
2005-01-26 08:11:08 51°11.594 2°46.23 5.1092 3.050367 31.323747 5.724665
2005-01-26 08:11:13 51°11.583 2°46.196 5.1152 3.047735 31.29469 5.690956
2005-01-26 08:11:18 51°11.573 2°46.167 5.1147 3.064158 31.480357 5.556118
2005-01-26 08:11:23 51°11.564 2°46.142 5.1156 3.064158 31.480357 5.556118
2005-01-26 08:11:28 51°11.552 2°46.109 5.1146 3.055104 31.377532 5.623537
2005-01-26 08:11:33 51°11.544 2°46.081 5.1137 3.058683 31.417357 5.522409
2005-01-26 08:11:38 51°11.533 2°46.049 5.1156 3.065948 31.498218 5.421281
2005-01-26 08:11:43 51°11.523 2°46.019 5.1173 3.054999 31.373056 5.4887
2005-01-26 08:11:47 51°11.517 2°45.998 5.1205 3.062368 31.455093 5.252734
2005-01-26 08:11:52 51°11.506 2°45.965 5.119 3.062368 31.455093 5.252734
2005-01-26 08:11:58 51°11.494 2°45.93 5.1173 3.054156 31.360216 5.4887
2005-01-26 08:12:03 51°11.484 2°45.9 5.1172 3.061315 31.441494 5.185315
2005-01-26 08:12:08 51°11.476 2°45.868 5.1175 3.066895 31.50404 5.421281
2005-01-26 08:12:12 51°11.469 2°45.844 5.116 3.061421 31.440224 5.387571
2005-01-26 08:12:18 51°11.459 2°45.812 5.1183 3.050577 31.317132 5.151606
2005-01-26 08:12:23 51°11.451 2°45.78 5.1158 3.050577 31.317132 5.151606
2005-01-26 08:12:28 51°11.443 2°45.747 5.116 3.069527 31.529816 5.45499
2005-01-26 08:12:32 51°11.436 2°45.722 5.1225 3.058683 31.407505 4.91564
2005-01-26 08:12:38 51°11.427 2°45.683 5.1215 3.065737 31.486772 5.387571
2005-01-26 08:12:43 51°11.42 2°45.656 5.1163 3.068158 31.515919 5.421281
2005-01-26 08:12:48 51°11.412 2°45.621 5.1202 3.063526 31.463311 5.252734
2005-01-26 08:12:53 51°11.406 2°45.592 5.1177 3.063526 31.463311 5.252734
2005-01-26 08:12:58 51°11.397 2°45.559 5.1212 3.059736 31.418635 5.387571
2005-01-26 08:13:03 51°11.389 2°45.53 5.1201 3.05184 31.329832 5.252734
2005-01-26 08:13:08 51°11.383 2°45.495 5.1212 3.060157 31.424238 5.286443
2005-01-26 08:13:13 51°11.375 2°45.467 5.1252 3.058894 31.407433 4.679674
2005-01-26 08:13:18 51°11.367 2°45.432 5.1198 3.067632 31.508293 5.084187
2005-01-26 08:13:23 51°11.362 2°45.403 5.1165 3.067632 31.508293 5.084187
2005-01-26 08:13:28 51°11.354 2°45.373 5.12 3.066684 31.496709 5.219024
2005-01-26 08:13:33 51°11.349 2°45.336 5.1186 3.067106 31.499845 5.016768
2005-01-26 08:13:38 51°11.344 2°45.304 5.1219 3.06879 31.519799 4.949349
2005-01-26 08:13:43 51°11.338 2°45.275 5.1259 3.061526 31.434848 4.91564
2005-01-26 08:13:48 51°11.333 2°45.239 5.1248 3.062894 31.450385 5.050477
2005-01-26 08:13:52 51°11.328 2°45.214 5.1251 3.062894 31.450385 5.050477
2005-01-26 08:13:58 51°11.321 2°45.175 5.126 3.064263 31.465924 4.848221
2005-01-26 08:14:03 51°11.316 2°45.146 5.1303 3.060578 31.424913 4.848221
2005-01-26 08:14:08 51°11.31 2°45.11 5.1319 3.066684 31.493417 4.91564
2005-01-26 08:14:13 51°11.304 2°45.081 5.1342 3.065526 31.48109 4.814512
2005-01-26 08:14:18 51°11.299 2°45.046 5.1333 3.067737 31.504549 4.848221
2005-01-26 08:14:23 51°11.295 2°45.017 5.1374 3.067737 31.504549 4.848221
2005-01-26 08:14:28 51°11.289 2°44.98 5.1361 3.060578 31.421628 4.780802
2005-01-26 08:14:32 51°11.284 2°44.954 5.1343 3.068579 31.511643 4.713383
2005-01-26 08:14:38 51°11.278 2°44.919 5.1314 3.070159 31.527928 4.747093
2005-01-26 08:14:43 51°11.274 2°44.885 5.1301 3.072264 31.551015 4.679674
2005-01-26 08:14:48 51°11.268 2°44.85 5.13 3.068053 31.499083 4.207742
2005-01-26 08:14:53 51°11.262 2°44.817 5.1271 3.068053 31.499083 4.207742
2005-01-26 08:14:58 51°11.258 2°44.783 5.1289 3.063421 31.44568 4.780802
2005-01-26 08:15:03 51°11.253 2°44.754 5.1309 3.068474 31.503863 4.443708
2005-01-26 08:15:08 51°11.246 2°44.718 5.1359 3.066684 31.482724 4.645965
2005-01-26 08:15:12 51°11.243 2°44.692 5.1318 3.069 31.508193 4.88193
2005-01-26 08:15:18 51°11.236 2°44.654 5.1329 3.071632 31.538898 5.016768
2005-01-26 08:15:23 51°11.232 2°44.622 5.1288 3.071632 31.538898 5.016768
2005-01-26 08:15:28 51°11.226 2°44.586 5.1302 3.071317 31.536959 5.084187
2005-01-26 08:15:33 51°11.221 2°44.555 5.1314 3.064579 31.462111 5.151606
2005-01-26 08:15:38 51°11.215 2°44.519 5.1358 3.073422 31.561693 5.353862
2005-01-26 08:15:43 51°11.211 2°44.489 5.1347 3.074054 31.569691 5.185315
2005-01-26 08:15:48 51°11.203 2°44.452 5.1308 3.071211 31.536588 4.713383
2005-01-26 08:15:53 51°11.201 2°44.418 5.1352 3.071211 31.536588 4.713383
2005-01-26 08:15:58 51°11.193 2°44.385 5.1448 3.056788 31.372875 5.589828
2005-01-26 08:16:03 51°11.189 2°44.354 5.1417 3.072369 31.551386 5.45499
2005-01-26 08:16:08 51°11.182 2°44.318 5.137 3.074686 31.576865 5.353862
2005-01-26 08:16:12 51°11.179 2°44.291 5.1352 3.069843 31.518578 5.893212
2005-01-26 08:16:18 51°11.171 2°44.25 5.1364 3.073422 31.55922 5.758375
2005-01-26 08:16:23 51°11.167 2°44.22 5.1366 3.073422 31.55922 5.758375
2005-01-26 08:16:28 51°11.16 2°44.181 5.1421 3.069422 31.511328 5.4887
2005-01-26 08:16:33 51°11.154 2°44.15 5.1393 3.055946 31.355129 5.994341
2005-01-26 08:16:38 51°11.149 2°44.114 5.1367 3.071422 31.527449 5.690956
2005-01-26 08:16:43 51°11.141 2°44.084 5.1386 3.073527 31.55547 5.050477
2005-01-26 08:16:48 51°11.136 2°44.045 5.1332 3.05763 31.375056 5.589828
2005-01-26 08:16:52 51°11.13 2°44.019 5.1318 3.05763 31.375056 5.589828
2005-01-26 08:16:58 51°11.123 2°43.983 5.1295 3.070053 31.514383 5.252734
2005-01-26 08:17:03 51°11.118 2°43.949 5.1286 3.067105 31.483392 5.252734
2005-01-26 08:17:08 51°11.11 2°43.913 5.1311 3.07437 31.565857 5.151606
2005-01-26 08:17:13 51°11.106 2°43.878 5.1325 3.072685 31.545908 5.185315
2005-01-26 08:17:18 51°11.101 2°43.844 5.1354 3.07258 31.543889 5.016768
2005-01-26 08:17:23 51°11.095 2°43.813 5.1393 3.07258 31.543889 5.016768
2005-01-26 08:17:28 51°11.091 2°43.78 5.1451 3.067526 31.489817 5.084187
2005-01-26 08:17:33 51°11.085 2°43.744 5.1476 3.075738 31.585521 4.679674
2005-01-26 08:17:38 51°11.079 2°43.707 5.1507 3.073843 31.565651 4.949349
2005-01-26 08:17:43 51°11.075 2°43.676 5.1513 3.064052 31.453671 5.016768
2005-01-26 08:17:48 51°11.068 2°43.64 5.1489 3.076054 31.588283 4.780802
2005-01-26 08:17:53 51°11.062 2°43.609 5.1505 3.076054 31.588283 4.780802
2005-01-26 08:17:58 51°11.055 2°43.576 5.149 3.043734 31.220721 5.320153
2005-01-26 08:18:03 51°11.049 2°43.537 5.1485 3.034259 31.110072 5.589828
2005-01-26 08:18:08 51°11.041 2°43.505 5.1465 3.028575 31.0408 5.792084
2005-01-26 08:18:13 51°11.037 2°43.474 5.1433 3.032154 31.078911 6.264016
2005-01-26 08:18:18 51°11.029 2°43.438 5.1443 3.035628 31.117455 6.398853
2005-01-26 08:18:23 51°11.024 2°43.406 5.1447 3.035628 31.117455 6.398853
2005-01-26 08:18:28 51°11.018 2°43.372 5.144 3.038049 31.144075 6.533691
2005-01-26 08:18:33 51°11.012 2°43.338 5.1483 3.045629 31.229974 6.5674
2005-01-26 08:18:38 51°11.006 2°43.301 5.1455 3.052682 31.309936 6.061759
2005-01-26 08:18:43 51°11 2°43.267 5.1476 3.032049 31.076907 5.4887
2005-01-26 08:18:48 51°10.995 2°43.231 5.161 3.038154 31.147708 5.623537
2005-01-26 08:18:52 51°10.992 2°43.203 5.1436 3.038154 31.147708 5.623537
2005-01-26 08:18:58 51°10.984 2°43.165 5.1428 3.052788 31.316035 4.780802
2005-01-26 08:19:03 51°10.977 2°43.135 5.1472 3.049735 31.279782 5.219024
2005-01-26 08:19:08 51°10.971 2°43.097 5.1497 3.030785 31.064219 4.780802
2005-01-26 08:19:12 51°10.965 2°43.071 5.1506 3.004363 30.764305 4.443708
2005-01-26 08:19:18 51°10.959 2°43.035 5.1546 3.002994 30.746417 4.679674
2005-01-26 08:19:23 51°10.951 2°43.002 5.1573 3.002994 30.746417 4.679674
2005-01-26 08:19:28 51°10.946 2°42.965 5.1595 3.006047 30.780146 4.511127
2005-01-26 08:19:32 51°10.94 2°42.939 5.1641 2.987204 30.569481 4.477418
2005-01-26 08:19:38 51°10.934 2°42.898 5.1689 3.004257 30.762311 4.443708
2005-01-26 08:19:43 51°10.926 2°42.864 5.1711 3.001731 30.732931 4.241452
2005-01-26 08:19:48 51°10.922 2°42.83 5.1764 2.977836 30.460433 4.679674
2005-01-26 08:19:53 51°10.915 2°42.8 5.1745 2.977836 30.460433 4.679674
2005-01-26 08:19:58 51°10.908 2°42.763 5.1774 3.001205 30.72377 4.747093
2005-01-26 08:20:03 51°10.901 2°42.733 5.1766 3.005626 30.769761 4.949349
2005-01-26 08:20:08 51°10.893 2°42.697 5.1767 2.986994 30.555936 5.084187
2005-01-26 08:20:12 51°10.889 2°42.669 5.1829 3.004047 30.743078 5.151606
2005-01-26 08:20:18 51°10.881 2°42.63 5.18 3.002678 30.725202 4.814512
2005-01-26 08:20:23 51°10.876 2°42.599 5.1819 3.002678 30.725202 4.814512
2005-01-26 08:20:28 51°10.871 2°42.561 5.1837 2.99552 30.6419 5.758375
2005-01-26 08:20:32 51°10.867 2°42.534 5.1763 3.002994 30.725566 5.758375
2005-01-26 08:20:38 51°10.86 2°42.494 5.1778 2.99952 30.682303 5.589828
2005-01-26 08:20:43 51°10.854 2°42.464 5.1807 3.005941 30.75327 5.320153
2005-01-26 08:20:48 51°10.848 2°42.426 5.1834 3.005836 30.750476 5.556118
2005-01-26 08:20:53 51°10.843 2°42.396 5.1887 3.005836 30.750476 5.556118
2005-01-26 08:20:58 51°10.836 2°42.359 5.1875 2.999941 30.68306 4.511127
2005-01-26 08:21:03 51°10.831 2°42.327 5.1865 3.000889 30.692164 4.814512
2005-01-26 08:21:08 51°10.824 2°42.291 5.1902 3.004573 30.737001 4.275161
2005-01-26 08:21:12 51°10.821 2°42.263 5.1865 2.975099 30.404128 4.174033
2005-01-26 08:21:18 51°10.814 2°42.222 5.1882 2.965731 30.297635 3.836939
2005-01-26 08:21:23 51°10.811 2°42.191 5.1864 2.965731 30.297635 3.836939
2005-01-26 08:21:28 51°10.804 2°42.155 5.1902 3.006362 30.753218 3.735811
2005-01-26 08:21:33 51°10.799 2°42.121 5.1872 3.002994 30.71355 3.735811
2005-01-26 08:21:38 51°10.793 2°42.084 5.1862 3.006783 30.755571 3.836939
2005-01-26 08:21:43 51°10.788 2°42.054 5.1847 2.976888 30.416393 4.106614
2005-01-26 08:21:48 51°10.78 2°42.017 5.1849 3.019416 30.897562 3.836939
2005-01-26 08:21:53 51°10.773 2°41.983 5.1808 3.019416 30.897562 3.836939
2005-01-26 08:21:58 51°10.767 2°41.949 5.1898 3.011836 30.810269 4.713383
2005-01-26 08:22:03 51°10.762 2°41.919 5.1862 3.00152 30.692898 4.679674
2005-01-26 08:22:08 51°10.755 2°41.881 5.1879 3.007626 30.764286 5.185315
2005-01-26 08:22:13 51°10.749 2°41.847 5.1851 2.994678 30.618809 5.4887
2005-01-26 08:22:18 51°10.744 2°41.813 5.1862 3.000678 30.688185 5.657247
2005-01-26 08:22:23 51°10.737 2°41.782 5.1897 3.000678 30.688185 5.657247
2005-01-26 08:22:28 51°10.732 2°41.743 5.1863 2.980994 30.465103 5.623537
2005-01-26 08:22:33 51°10.725 2°41.711 5.1951 3.004783 30.734572 5.185315
2005-01-26 08:22:38 51°10.72 2°41.674 5.1914 2.997836 30.655277 5.4887
2005-01-26 08:22:43 51°10.714 2°41.644 5.1932 3.001415 30.697311 4.848221
2005-01-26 08:22:48 51°10.706 2°41.607 5.1929 2.980888 30.463121 4.949349
2005-01-26 08:22:53 51°10.701 2°41.575 5.1966 2.980888 30.463121 4.949349
2005-01-26 08:22:58 51°10.694 2°41.538 5.1975 2.992046 30.587494 4.949349
2005-01-26 08:23:03 51°10.69 2°41.508 5.1973 3.005836 30.743262 4.578546
2005-01-26 08:23:08 51°10.684 2°41.475 5.2015 3.007941 30.765448 4.241452
2005-01-26 08:23:12 51°10.678 2°41.443 5.2019 3.011836 30.807057 3.938067
2005-01-26 08:23:18 51°10.673 2°41.401 5.2045 2.993309 30.597771 4.039195
2005-01-26 08:23:23 51°10.666 2°41.368 5.2069 2.993309 30.597771 4.039195
2005-01-26 08:23:28 51°10.662 2°41.332 5.209 3.009626 30.779668 3.76952
2005-01-26 08:23:32 51°10.657 2°41.304 5.2105 3.012363 30.810596 4.005486
2005-01-26 08:23:38 51°10.653 2°41.263 5.212 3.0171 30.862526 4.005486
2005-01-26 08:23:43 51°10.646 2°41.232 5.2198 3.010468 30.785974 3.668392
2005-01-26 08:23:48 51°10.642 2°41.194 5.2158 2.990783 30.561281 4.005486
2005-01-26 08:23:53 51°10.635 2°41.161 5.2143 2.990783 30.561281 4.005486
2005-01-26 08:23:58 51°10.63 2°41.125 5.2163 3.012784 30.806522 4.140324
2005-01-26 08:24:03 51°10.624 2°41.095 5.2148 2.982783 30.467034 4.308871
2005-01-26 08:24:08 51°10.617 2°41.059 5.2154 3.102058 31.812324 4.443708
2005-01-26 08:24:12 51°10.611 2°41.032 5.2175 3.103216 31.822975 4.612255
2005-01-26 08:24:18 51°10.605 2°40.991 5.2175 3.103427 31.823705 4.747093
2005-01-26 08:24:23 51°10.6 2°40.957 5.2189 3.103427 31.823705 4.747093
2005-01-26 08:24:28 51°10.593 2°40.924 5.2201 3.103637 31.824436 4.747093
2005-01-26 08:24:32 51°10.589 2°40.897 5.2214 3.103743 31.82563 4.848221
2005-01-26 08:24:38 51°10.583 2°40.859 5.221 3.104164 31.831236 4.88193
2005-01-26 08:24:43 51°10.577 2°40.826 5.2221 3.105006 31.840791 4.949349
2005-01-26 08:24:48 51°10.572 2°40.789 5.2229 3.105533 31.844275 5.117896
2005-01-26 08:24:52 51°10.568 2°40.762 5.2213 3.105533 31.844275 5.117896
2005-01-26 08:24:58 51°10.562 2°40.721 5.2223 3.106164 31.852271 5.050477
2005-01-26 08:25:03 51°10.557 2°40.687 5.2229 3.106796 31.856947 5.050477
2005-01-26 08:25:08 51°10.551 2°40.653 5.2269 3.106796 31.855288 5.117896
2005-01-26 08:25:13 51°10.546 2°40.623 5.2271 3.107007 31.857676 5.016768
2005-01-26 08:25:18 51°10.538 2°40.587 5.2299 3.107007 31.856846 4.983059
2005-01-26 08:25:23 51°10.535 2°40.556 5.2276 3.107007 31.856846 4.983059
2005-01-26 08:25:28 51°10.528 2°40.52 5.2277 3.107007 31.856017 4.949349
2005-01-26 08:25:33 51°10.524 2°40.49 5.2313 3.107217 31.858405 4.983059
2005-01-26 08:25:38 51°10.515 2°40.455 5.2345 3.107112 31.8597 5.016768
2005-01-26 08:25:43 51°10.511 2°40.424 5.2317 3.107217 31.857575 5.050477
2005-01-26 08:25:48 51°10.505 2°40.387 5.2289 3.107322 31.85794 4.91564
2005-01-26 08:25:52 51°10.5 2°40.361 5.2325 3.107322 31.85794 4.91564
2005-01-26 08:25:58 51°10.494 2°40.32 5.2305 3.107428 31.856645 4.88193
2005-01-26 08:26:03 51°10.489 2°40.291 5.2303 3.107638 31.858203 5.084187
2005-01-26 08:26:08 51°10.482 2°40.255 5.2293 3.107849 31.858932 4.983059
2005-01-26 08:26:13 51°10.478 2°40.225 5.2278 3.107638 31.853226 4.983059
2005-01-26 08:26:18 51°10.469 2°40.192 5.2336 3.107743 31.855249 4.949349
2005-01-26 08:26:23 51°10.465 2°40.162 5.235 3.107743 31.855249 4.949349
2005-01-26 08:26:28 51°10.459 2°40.13 5.239 3.10827 31.860389 5.016768
2005-01-26 08:26:33 51°10.453 2°40.096 5.235 3.10848 31.863607 5.084187
2005-01-26 08:26:38 51°10.448 2°40.061 5.2342 3.108691 31.866825 4.983059
2005-01-26 08:26:43 51°10.443 2°40.032 5.2353 3.108691 31.866825 4.848221
2005-01-26 08:26:48 51°10.438 2°39.996 5.2357 3.108796 31.868849 4.949349
2005-01-26 08:26:53 51°10.432 2°39.966 5.2372 3.108796 31.868849 4.949349
2005-01-26 08:26:58 51°10.426 2°39.932 5.2432 3.108796 31.86553 4.814512
2005-01-26 08:27:03 51°10.421 2°39.902 5.2383 3.108796 31.863041 4.780802
2005-01-26 08:27:07 51°10.416 2°39.873 5.2372 3.109323 31.86984 4.713383
2005-01-26 08:27:13 51°10.41 2°39.834 5.2387 3.109639 31.873421 4.645965
2005-01-26 08:27:18 51°10.404 2°39.801 5.241 3.109954 31.878663 4.578546
2005-01-26 08:27:23 51°10.399 2°39.772 5.2507 3.109954 31.878663 4.578546
2005-01-26 08:27:28 51°10.395 2°39.736 5.2518 3.110376 31.882609 4.544836
2005-01-26 08:27:32 51°10.39 2°39.709 5.256 3.110691 31.884531 4.443708
2005-01-26 08:27:38 51°10.385 2°39.668 5.2559 3.111323 31.890864 4.376289
2005-01-26 08:27:43 51°10.38 2°39.639 5.2634 3.112165 31.900416 4.241452
2005-01-26 08:27:48 51°10.376 2°39.606 5.2663 3.112587 31.903531 4.106614
2005-01-26 08:27:53 51°10.371 2°39.572 5.2699 3.112587 31.903531 4.106614
2005-01-26 08:27:58 51°10.366 2°39.535 5.2731 3.113113 31.907009 4.005486
2005-01-26 08:28:03 51°10.36 2°39.505 5.2761 3.113639 31.907995 3.938067
2005-01-26 08:28:08 51°10.355 2°39.468 5.2794 3.114587 31.916247 3.76952
2005-01-26 08:28:12 51°10.35 2°39.44 5.2842 3.11585 31.928079 3.668392
2005-01-26 08:28:19 51°10.345 2°39.397 5.2908 3.117008 31.935393 3.567264
2005-01-26 08:28:23 51°10.338 2°39.372 5.2967 3.117008 31.935393 3.567264
2005-01-26 08:28:28 51°10.333 2°39.335 5.3019 3.117956 31.943642 3.466136
2005-01-26 08:28:33 51°10.327 2°39.305 5.3067 3.118588 31.945816 3.432426
2005-01-26 08:28:38 51°10.323 2°39.273 5.3165 3.120167 31.959561 3.331298
2005-01-26 08:28:43 51°10.316 2°39.236 5.3229 3.121009 31.964119 3.297589
2005-01-26 08:28:48 51°10.311 2°39.203 5.3283 3.122167 31.973919 3.331298
2005-01-26 08:28:52 51°10.306 2°39.176 5.3328 3.122167 31.973919 3.331298
2005-01-26 08:28:58 51°10.301 2°39.136 5.3393 3.124168 31.991598 3.263879
2005-01-26 08:29:03 51°10.295 2°39.108 5.3453 3.125747 32.002007 3.263879
2005-01-26 08:29:08 51°10.29 2°39.072 5.3471 3.127537 32.016461 3.162751
2005-01-26 08:29:13 51°10.284 2°39.043 5.3531 3.129011 32.02567 3.095332
2005-01-26 08:29:18 51°10.28 2°39.006 5.3578 3.13059 32.036068 2.960494
2005-01-26 08:29:23 51°10.274 2°38.977 5.3663 3.13059 32.036068 2.960494
2005-01-26 08:29:28 51°10.27 2°38.944 5.3703 3.131854 32.043719 2.893076
2005-01-26 08:29:33 51°10.265 2°38.912 5.373 3.133749 32.059352 2.926785
2005-01-26 08:29:38 51°10.258 2°38.877 5.3791 3.135328 32.070573 2.791947
2005-01-26 08:29:43 51°10.255 2°38.846 5.3813 3.137118 32.085006 2.825657
2005-01-26 08:29:48 51°10.248 2°38.81 5.3852 3.13796 32.087047 2.893076
2005-01-26 08:29:52 51°10.247 2°38.783 5.3861 3.13796 32.087047 2.893076
2005-01-26 08:29:58 51°10.24 2°38.745 5.3921 3.139961 32.106356 2.758238
2005-01-26 08:30:03 51°10.236 2°38.715 5.3974 3.142593 32.130312 2.690819
2005-01-26 08:30:08 51°10.231 2°38.678 5.4023 3.143646 32.136393 2.6234
2005-01-26 08:30:12 51°10.227 2°38.65 5.4091 3.145436 32.15081 2.6234
2005-01-26 08:30:18 51°10.221 2°38.611 5.4162 3.146594 32.158078 2.589691
2005-01-26 08:30:23 51°10.216 2°38.583 5.4194 3.146594 32.158078 2.589691
2005-01-26 08:30:28 51°10.211 2°38.546 5.4251 3.147226 32.162723 2.65711
2005-01-26 08:30:33 51°10.206 2°38.515 5.4297 3.149016 32.179635 2.522272
2005-01-26 08:30:38 51°10.202 2°38.478 5.4347 3.150805 32.194042 2.488563
2005-01-26 08:30:43 51°10.198 2°38.449 5.4405 3.15228 32.204874 2.522272
2005-01-26 08:30:48 51°10.192 2°38.415 5.4421 3.153332 32.211774 2.589691
2005-01-26 08:30:53 51°10.186 2°38.382 5.4468 3.153332 32.211774 2.589691
2005-01-26 08:30:58 51°10.181 2°38.349 5.4508 3.155438 32.22891 2.421144
2005-01-26 08:31:03 51°10.176 2°38.32 5.4555 3.15786 32.250446 2.454853
2005-01-26 08:31:08 51°10.169 2°38.285 5.4635 3.160282 32.271143 2.421144
2005-01-26 08:31:12 51°10.166 2°38.259 5.468 3.16165 32.283275 2.522272
2005-01-26 08:31:18 51°10.158 2°38.221 5.4701 3.163125 32.294088 2.522272
2005-01-26 08:31:23 51°10.154 2°38.191 5.4717 3.163125 32.294088 2.522272
2005-01-26 08:31:28 51°10.148 2°38.153 5.4755 3.164493 32.303709 2.6234
2005-01-26 08:31:33 51°10.143 2°38.119 5.4781 3.165757 32.314645 2.555982
2005-01-26 08:31:38 51°10.138 2°38.087 5.4791 3.167336 32.325805 2.589691
2005-01-26 08:31:43 51°10.132 2°38.058 5.4827 3.168389 32.331849 2.690819
2005-01-26 08:31:48 51°10.126 2°38.02 5.4854 3.169337 32.336702 2.589691
2005-01-26 08:31:52 51°10.122 2°37.994 5.4867 3.169337 32.336702 2.589691
2005-01-26 08:31:58 51°10.115 2°37.955 5.4872 3.17039 32.34358 2.589691
2005-01-26 08:32:03 51°10.109 2°37.925 5.4907 3.171759 32.355696 2.6234
2005-01-26 08:32:08 51°10.106 2°37.891 5.4932 3.172917 32.367106 2.758238
2005-01-26 08:32:13 51°10.098 2°37.859 5.4934 3.17397 32.375652 2.859366
2005-01-26 08:32:18 51°10.096 2°37.821 5.4953 3.175023 32.383361 2.690819
2005-01-26 08:32:23 51°10.09 2°37.792 5.4937 3.175023 32.383361 2.690819
2005-01-26 08:32:28 51°10.086 2°37.755 5.4952 3.175023 32.381687 2.724529
2005-01-26 08:32:32 51°10.083 2°37.728 5.4968 3.17597 32.389042 2.690819
2005-01-26 08:32:38 51°10.076 2°37.689 5.4987 3.176391 32.392124 2.690819
2005-01-26 08:32:43 51°10.073 2°37.658 5.5021 3.176918 32.394721 2.6234
2005-01-26 08:32:48 51°10.067 2°37.621 5.5022 3.177866 32.402911 2.859366
2005-01-26 08:32:53 51°10.065 2°37.59 5.4998 3.177866 32.402911 2.859366
2005-01-26 08:32:58 51°10.059 2°37.558 5.5034 3.178392 32.407181 2.65711
2005-01-26 08:33:03 51°10.055 2°37.524 5.5044 3.17934 32.417043 2.65711
2005-01-26 08:33:08 51°10.049 2°37.489 5.5029 3.17934 32.416206 2.926785
2005-01-26 08:33:12 51°10.046 2°37.461 5.5 3.180393 32.42642 2.65711
2005-01-26 08:33:18 51°10.041 2°37.422 5.5031 3.180603 32.425448 2.65711
2005-01-26 08:33:23 51°10.036 2°37.392 5.507 3.180603 32.425448 2.65711
2005-01-26 08:33:28 51°10.031 2°37.356 5.5105 3.181024 32.429365 2.65711
2005-01-26 08:33:33 51°10.027 2°37.323 5.5141 3.181446 32.434958 2.724529
2005-01-26 08:33:38 51°10.022 2°37.291 5.5154 3.181235 32.430905 2.690819
2005-01-26 08:33:43 51°10.016 2°37.262 5.523 3.182288 32.444468 2.690819
2005-01-26 08:33:48 51°10.012 2°37.224 5.5208 3.182499 32.446008 2.690819
2005-01-26 08:33:52 51°10.009 2°37.197 5.5231 3.182499 32.446008 2.690819
2005-01-26 08:33:58 51°10.004 2°37.157 5.5257 3.183236 32.452653 2.791947
2005-01-26 08:34:03 51°10.001 2°37.128 5.5303 3.184183 32.462514 2.791947
2005-01-26 08:34:08 51°9.994 2°37.09 5.5313 3.185026 32.467833 2.825657
2005-01-26 08:34:13 51°9.992 2°37.059 5.5321 3.185868 32.473151 2.758238
2005-01-26 08:34:18 51°9.985 2°37.025 5.5352 3.186289 32.4712 2.758238
2005-01-26 08:34:23 51°9.98 2°36.997 5.5366 3.186289 32.4712 2.758238
2005-01-26 08:34:28 51°9.974 2°36.96 5.5377 3.188185 32.492592 2.994204
2005-01-26 08:34:33 51°9.97 2°36.929 5.5427 3.189869 32.50993 2.690819
2005-01-26 08:34:38 51°9.965 2°36.894 5.5442 3.190712 32.516921 2.65711
2005-01-26 08:34:43 51°9.959 2°36.865 5.5441 3.191765 32.526288 2.6234
2005-01-26 08:34:48 51°9.952 2°36.829 5.5473 3.192818 32.536494 2.555982
2005-01-26 08:34:52 51°9.949 2°36.802 5.5472 3.192818 32.536494 2.555982
2005-01-26 08:34:58 51°9.94 2°36.763 5.5502 3.193765 32.544671 2.6234
2005-01-26 08:35:03 51°9.937 2°36.73 5.5541 3.195556 32.562354 2.522272
2005-01-26 08:35:08 51°9.931 2°36.697 5.5565 3.195871 32.562559 2.758238
2005-01-26 08:35:13 51°9.928 2°36.663 5.5604 3.196819 32.570734 2.488563
2005-01-26 08:35:18 51°9.923 2°36.63 5.5616 3.197872 32.579256 2.454853
2005-01-26 08:35:23 51°9.921 2°36.6 5.564 3.197872 32.579256 2.454853
2005-01-26 08:35:28 51°9.915 2°36.566 5.5678 3.198609 32.585893 2.488563
2005-01-26 08:35:32 51°9.914 2°36.539 5.5689 3.199346 32.591689 2.387435
2005-01-26 08:35:38 51°9.909 2°36.5 5.5706 3.20061 32.602584 2.421144
2005-01-26 08:35:43 51°9.906 2°36.469 5.5745 3.201663 32.611102 2.387435
2005-01-26 08:35:48 51°9.902 2°36.435 5.5787 3.203032 32.624865 2.488563
2005-01-26 08:35:52 51°9.9 2°36.409 5.5839 3.203032 32.624865 2.488563
2005-01-26 08:35:58 51°9.895 2°36.369 5.5889 3.204401 32.636103 2.421144
2005-01-26 08:36:03 51°9.893 2°36.339 5.5911 3.205138 32.641895 2.454853
2005-01-26 08:36:08 51°9.889 2°36.302 5.5959 3.20598 32.648874 2.387435
2005-01-26 08:36:13 51°9.885 2°36.271 5.605 3.206928 32.657882 2.421144
2005-01-26 08:36:18 51°9.884 2°36.238 5.6133 3.208086 32.667582 2.454853
2005-01-26 08:36:23 51°9.879 2°36.205 5.6205 3.208086 32.667582 2.454853
2005-01-26 08:36:27 51°9.878 2°36.177 5.6286 3.209455 32.679655 2.387435
2005-01-26 08:36:32 51°9.873 2°36.14 5.631 3.210298 32.682421 2.6234
2005-01-26 08:36:38 51°9.87 2°36.101 5.6341 3.211561 32.692462 2.454853
2005-01-26 08:36:43 51°9.867 2°36.07 5.6417 3.212509 32.696413 2.454853
2005-01-26 08:36:47 51°9.87 2°36.041 5.6437 3.214404 32.712731 2.454853
2005-01-26 08:36:52 51°9.87 2°36.008 5.6472 3.214404 32.712731 2.454853
2005-01-26 08:36:58 51°9.872 2°35.969 5.6565 3.217037 32.734829 2.320016
2005-01-26 08:37:03 51°9.877 2°35.941 5.6574 3.219037 32.748956 2.353725
2005-01-26 08:37:08 51°9.883 2°35.908 5.6613 3.220512 32.757986 2.286306
2005-01-26 08:37:12 51°9.889 2°35.885 5.6654 3.222091 32.768201 2.252597
2005-01-26 08:37:18 51°9.9 2°35.853 5.6677 3.222407 32.765861 2.286306
2005-01-26 08:37:23 51°9.91 2°35.83 5.6829 3.222407 32.765861 2.286306
2005-01-26 08:37:28 51°9.924 2°35.804 5.6816 3.223355 32.77064 2.218888
2005-01-26 08:37:33 51°9.936 2°35.784 5.6821 3.224513 32.779474 2.185178
2005-01-26 08:37:38 51°9.95 2°35.766 5.6808 3.22525 32.781036 2.117759
2005-01-26 08:37:43 51°9.966 2°35.749 5.6862 3.226724 32.792582 2.185178
2005-01-26 08:37:48 51°9.982 2°35.735 5.686 3.227567 32.797012 2.151469
2005-01-26 08:37:52 51°9.995 2°35.726 5.6855 3.227567 32.797012 2.151469
2005-01-26 08:37:58 51°10.016 2°35.715 5.6913 3.227988 32.796699 2.218888
2005-01-26 08:38:03 51°10.031 2°35.71 5.6978 3.228304 32.792674 2.218888
2005-01-26 08:38:08 51°10.05 2°35.706 5.7012 3.22883 32.795231 2.218888
2005-01-26 08:38:13 51°10.066 2°35.704 5.7006 3.229673 32.804713 2.151469
2005-01-26 08:38:18 51°10.083 2°35.706 5.7078 3.230199 32.807269 2.117759
2005-01-26 08:38:23 51°10.099 2°35.709 5.7072 3.230199 32.807269 2.117759
2005-01-26 08:38:28 51°10.116 2°35.716 5.7024 3.231042 32.81338 2.08405
2005-01-26 08:38:32 51°10.128 2°35.722 5.702 3.232516 32.826599 2.050341
2005-01-26 08:38:38 51°10.146 2°35.733 5.7037 3.234201 32.841345 1.982922
2005-01-26 08:38:43 51°10.159 2°35.744 5.7032 3.237044 32.869965 1.848084
2005-01-26 08:38:48 51°10.174 2°35.759 5.7036 3.239361 32.892659 1.679537
2005-01-26 08:38:53 51°10.187 2°35.774 5.7089 3.239361 32.892659 1.679537
2005-01-26 08:38:58 51°10.199 2°35.789 5.7132 3.241783 32.917381 1.645828
2005-01-26 08:39:03 51°10.21 2°35.803 5.7161 3.244942 32.952089 1.5447
2005-01-26 08:39:08 51°10.223 2°35.823 5.7167 3.24768 32.983752 1.409862
2005-01-26 08:39:13 51°10.234 2°35.838 5.7194 3.249892 33.008646 1.308734
2005-01-26 08:39:18 51°10.246 2°35.858 5.7198 3.251998 33.031509 1.241315
2005-01-26 08:39:23 51°10.256 2°35.873 5.7193 3.251998 33.031509 1.241315
2005-01-26 08:39:28 51°10.269 2°35.893 5.7169 3.254315 33.055897 1.207606
2005-01-26 08:39:32 51°10.278 2°35.908 5.7177 3.256632 33.079437 1.140187
2005-01-26 08:39:38 51°10.292 2°35.929 5.714 3.257474 33.085527 1.106477
2005-01-26 08:39:43 51°10.302 2°35.945 5.7137 3.258843 33.099242 1.039059
2005-01-26 08:39:48 51°10.316 2°35.964 5.7145 3.259791 33.108215 1.072768
2005-01-26 08:39:53 51°10.328 2°35.982 5.7117 3.259791 33.108215 1.072768
2005-01-26 08:39:58 51°10.34 2°35.999 5.7108 3.260739 33.118036 1.072768
2005-01-26 08:40:03 51°10.353 2°36.015 5.7076 3.26116 33.122779 1.039059
2005-01-26 08:40:08 51°10.366 2°36.031 5.7072 3.26116 33.123628 1.005349
2005-01-26 08:40:13 51°10.378 2°36.045 5.7029 3.261266 33.126514 1.072768
2005-01-26 08:40:18 51°10.393 2°36.063 5.7046 3.260844 33.12262 1.072768
2005-01-26 08:40:23 51°10.404 2°36.076 5.702 3.260844 33.12262 1.072768
2005-01-26 08:40:28 51°10.419 2°36.094 5.6995 3.260423 33.118727 1.106477
2005-01-26 08:40:32 51°10.429 2°36.107 5.6971 3.25937 33.108568 1.173896
2005-01-26 08:40:38 51°10.444 2°36.125 5.6982 3.258422 33.098745 1.207606
2005-01-26 08:40:43 51°10.457 2°36.139 5.6959 3.25758 33.090108 1.308734
2005-01-26 08:40:48 51°10.47 2°36.156 5.6959 3.256527 33.080797 1.376153
2005-01-26 08:40:53 51°10.484 2°36.171 5.6967 3.256527 33.080797 1.376153
2005-01-26 08:40:58 51°10.497 2°36.185 5.6958 3.255579 33.072671 1.477281
2005-01-26 08:41:03 51°10.508 2°36.198 5.6957 3.25442 33.062173 1.477281
2005-01-26 08:41:07 51°10.52 2°36.212 5.6939 3.253683 33.05472 1.679537
2005-01-26 08:41:12 51°10.534 2°36.227 5.6955 3.252735 33.045744 1.713247
2005-01-26 08:41:18 51°10.551 2°36.244 5.6959 3.252209 33.039815 1.780665
2005-01-26 08:41:23 51°10.563 2°36.257 5.6957 3.252209 33.039815 1.780665
2005-01-26 08:41:28 51°10.577 2°36.273 5.6942 3.251788 33.036768 1.848084
2005-01-26 08:41:32 51°10.587 2°36.285 5.6933 3.251156 33.0305 1.848084
2005-01-26 08:41:38 51°10.603 2°36.304 5.6934 3.250419 33.0222 1.881794
2005-01-26 08:41:43 51°10.615 2°36.317 5.6937 3.250208 33.019828 1.982922
2005-01-26 08:41:48 51°10.627 2°36.332 5.694 3.249787 33.015085 2.117759
2005-01-26 08:41:53 51°10.638 2°36.346 5.6947 3.249787 33.015085 2.117759
2005-01-26 08:41:58 51°10.653 2°36.362 5.6943 3.24926 33.009156 2.218888
2005-01-26 08:42:03 51°10.664 2°36.375 5.6911 3.24905 33.006785 2.252597
2005-01-26 08:42:08 51°10.678 2°36.39 5.6913 3.248523 33.000009 2.151469
2005-01-26 08:42:13 51°10.692 2°36.404 5.6927 3.247996 32.994928 2.353725
2005-01-26 08:42:18 51°10.705 2°36.418 5.6919 3.247575 32.990185 2.286306
2005-01-26 08:42:23 51°10.718 2°36.429 5.6934 3.247575 32.990185 2.286306
2005-01-26 08:42:28 51°10.733 2°36.444 5.6918 3.246838 32.982733 2.353725
2005-01-26 08:42:32 51°10.744 2°36.454 5.6871 3.246311 32.977651 2.353725
2005-01-26 08:42:38 51°10.761 2°36.47 5.6854 3.24589 32.973755 2.320016
2005-01-26 08:42:43 51°10.775 2°36.484 5.6831 3.245574 32.970198 2.286306
2005-01-26 08:42:47 51°10.785 2°36.494 5.6795 3.244732 32.959867 2.387435
2005-01-26 08:42:52 51°10.8 2°36.507 5.6796 3.244732 32.959867 2.387435
2005-01-26 08:42:58 51°10.817 2°36.524 5.6757 3.2441 32.9536 2.286306
2005-01-26 08:43:03 51°10.83 2°36.535 5.6719 3.243363 32.946147 2.421144
2005-01-26 08:43:08 51°10.845 2°36.55 5.6735 3.242415 32.938014 2.387435
2005-01-26 08:43:13 51°10.857 2°36.562 5.6758 3.241467 32.927345 2.589691
2005-01-26 08:43:18 51°10.873 2°36.577 5.6712 3.240204 32.916499 2.387435
2005-01-26 08:43:23 51°10.886 2°36.589 5.6669 3.240204 32.916499 2.387435
2005-01-26 08:43:28 51°10.901 2°36.603 5.6682 3.238519 32.900065 2.286306
2005-01-26 08:43:33 51°10.912 2°36.613 5.6651 3.23715 32.887187 2.421144
2005-01-26 08:43:38 51°10.928 2°36.629 5.6603 3.235781 32.873463 2.454853
2005-01-26 08:43:43 51°10.94 2°36.641 5.6596 3.234833 32.865326 2.387435
2005-01-26 08:43:48 51°10.954 2°36.653 5.6521 3.23378 32.854314 2.454853
2005-01-26 08:43:52 51°10.965 2°36.664 5.6479 3.23378 32.854314 2.454853
2005-01-26 08:43:58 51°10.982 2°36.68 5.653 3.232832 32.845331 2.353725
2005-01-26 08:44:03 51°10.994 2°36.692 5.648 3.231252 32.829235 2.454853
2005-01-26 08:44:08 51°11.008 2°36.705 5.6458 3.229883 32.817196 2.454853
2005-01-26 08:44:12 51°11.019 2°36.715 5.6433 3.228515 32.803469 2.488563
2005-01-26 08:44:18 51°11.034 2°36.729 5.6398 3.227461 32.794984 2.555982
2005-01-26 08:44:23 51°11.048 2°36.742 5.6375 3.227461 32.794984 2.555982
2005-01-26 08:44:28 51°11.064 2°36.757 5.637 3.22367 32.758197 2.690819
2005-01-26 08:44:33 51°11.077 2°36.769 5.6338 3.22188 32.740567 2.65711
2005-01-26 08:44:38 51°11.089 2°36.782 5.6315 3.222933 32.754106 2.791947
2005-01-26 08:44:43 51°11.101 2°36.794 5.6322 3.219985 32.72259 2.859366
2005-01-26 08:44:48 51°11.116 2°36.809 5.6264 3.219037 32.715283 2.791947
2005-01-26 08:44:53 51°11.129 2°36.824 5.6263 3.219037 32.715283 2.791947
2005-01-26 08:44:58 51°11.143 2°36.836 5.6258 3.21988 32.728134 2.893076
2005-01-26 08:45:03 51°11.155 2°36.849 5.6262 3.219353 32.724729 3.061623
2005-01-26 08:45:08 51°11.169 2°36.861 5.6238 3.216615 32.695578 2.926785
2005-01-26 08:45:12 51°11.18 2°36.872 5.6235 3.217984 32.711835 2.994204
2005-01-26 08:45:18 51°11.197 2°36.888 5.6185 3.217458 32.70927 2.994204
2005-01-26 08:45:23 51°11.209 2°36.9 5.6172 3.217458 32.70927 2.994204
2005-01-26 08:45:27 51°11.22 2°36.911 5.6183 3.21651 32.701959 3.095332
2005-01-26 08:45:33 51°11.236 2°36.927 5.6143 3.21651 32.704482 3.095332
2005-01-26 08:45:38 51°11.249 2°36.941 5.6158 3.214614 32.683973 3.162751
2005-01-26 08:45:43 51°11.262 2°36.952 5.6137 3.215773 32.699543 3.095332
2005-01-26 08:45:48 51°11.277 2°36.967 5.6169 3.215773 32.699543 3.027913
2005-01-26 08:45:53 51°11.289 2°36.978 5.6157 3.215773 32.699543 3.027913
2005-01-26 08:45:58 51°11.304 2°36.992 5.6159 3.215036 32.694603 3.129042
2005-01-26 08:46:03 51°11.317 2°37.004 5.6186 3.215036 32.695444 2.893076
2005-01-26 08:46:08 51°11.332 2°37.018 5.6152 3.214615 32.693222 2.926785
2005-01-26 08:46:13 51°11.344 2°37.03 5.6205 3.213667 32.682544 2.926785
2005-01-26 08:46:18 51°11.359 2°37.045 5.6212 3.213877 32.685758 2.859366
2005-01-26 08:46:23 51°11.372 2°37.057 5.6199 3.213877 32.685758 2.859366
2005-01-26 08:46:28 51°11.388 2°37.071 5.6201 3.213351 32.679826 2.926785
2005-01-26 08:46:32 51°11.398 2°37.082 5.618 3.213456 32.680172 2.825657
2005-01-26 08:46:38 51°11.415 2°37.098 5.6201 3.213772 32.683731 2.791947
2005-01-26 08:46:43 51°11.429 2°37.111 5.6196 3.212298 32.667122 2.960494
2005-01-26 08:46:48 51°11.443 2°37.125 5.6213 3.214509 32.689513 2.859366
2005-01-26 08:46:52 51°11.454 2°37.136 5.6212 3.214509 32.689513 2.859366
2005-01-26 08:46:58 51°11.472 2°37.152 5.6219 3.213351 32.675623 2.893076
2005-01-26 08:47:03 51°11.484 2°37.164 5.6214 3.213456 32.67765 2.893076
2005-01-26 08:47:08 51°11.499 2°37.179 5.6223 3.21314 32.674931 2.859366
2005-01-26 08:47:12 51°11.51 2°37.19 5.6237 3.214404 32.688326 2.893076
2005-01-26 08:47:18 51°11.527 2°37.206 5.6235 3.213246 32.675277 2.960494
2005-01-26 08:47:23 51°11.539 2°37.217 5.6221 3.213246 32.675277 2.960494
2005-01-26 08:47:28 51°11.555 2°37.231 5.6223 3.214088 32.683086 2.960494
2005-01-26 08:47:32 51°11.566 2°37.242 5.6216 3.214404 32.685804 2.926785
2005-01-26 08:47:38 51°11.581 2°37.258 5.6224 3.212719 32.666825 2.926785
2005-01-26 08:47:43 51°11.593 2°37.269 5.6243 3.213456 32.674288 3.129042
2005-01-26 08:47:48 51°11.609 2°37.286 5.6224 3.214509 32.686149 3.061623
2005-01-26 08:47:52 51°11.619 2°37.296 5.6237 3.214509 32.686149 3.061623
2005-01-26 08:47:58 51°11.636 2°37.311 5.6198 3.213983 32.680218 2.926785
2005-01-26 08:48:03 51°11.648 2°37.322 5.6222 3.213877 32.679032 3.027913
2005-01-26 08:48:08 51°11.663 2°37.337 5.6244 3.213667 32.675819 3.23017
2005-01-26 08:48:13 51°11.675 2°37.35 5.6248 3.213035 32.669543 3.061623
2005-01-26 08:48:18 51°11.69 2°37.363 5.6223 3.21293 32.668357 3.061623
2005-01-26 08:48:23 51°11.703 2°37.376 5.6237 3.21293 32.668357 3.061623
2005-01-26 08:48:28 51°11.719 2°37.391 5.6242 3.213351 32.673101 3.162751
2005-01-26 08:48:32 51°11.73 2°37.402 5.6273 3.213246 32.671915 3.19646
2005-01-26 08:48:38 51°11.747 2°37.417 5.6295 3.214509 32.68699 3.129042
2005-01-26 08:48:43 51°11.759 2°37.429 5.6259 3.213035 32.669543 3.095332
2005-01-26 08:48:48 51°11.774 2°37.443 5.6251 3.213035 32.668703 3.061623
2005-01-26 08:48:53 51°11.787 2°37.456 5.6277 3.213035 32.668703 3.061623
2005-01-26 08:48:58 51°11.802 2°37.471 5.6256 3.21314 32.670729 3.061623
2005-01-26 08:49:03 51°11.815 2°37.483 5.6286 3.214088 32.680564 3.129042
2005-01-26 08:49:07 51°11.828 2°37.496 5.6259 3.213667 32.674139 3.129042
2005-01-26 08:49:13 51°11.844 2°37.512 5.6275 3.212508 32.657732 3.162751
2005-01-26 08:49:18 51°11.858 2°37.525 5.6302 3.213772 32.673644 3.061623
2005-01-26 08:49:23 51°11.871 2°37.537 5.6283 3.213772 32.673644 3.061623
2005-01-26 08:49:28 51°11.886 2°37.552 5.6296 3.213351 32.6689 3.095332
2005-01-26 08:49:32 51°11.897 2°37.563 5.6291 3.212298 32.65704 3.095332
2005-01-26 08:49:38 51°11.914 2°37.579 5.6255 3.211982 32.652643 3.162751
2005-01-26 08:49:43 51°11.926 2°37.592 5.6292 3.212719 32.661784 3.061623
2005-01-26 08:49:48 51°11.942 2°37.607 5.624 3.210613 32.637227 3.129042
2005-01-26 08:49:53 51°11.954 2°37.618 5.6233 3.210613 32.637227 3.129042
2005-01-26 08:49:58 51°11.969 2°37.633 5.625 3.211771 32.649431 3.095332
2005-01-26 08:50:03 51°11.981 2°37.645 5.6284 3.210402 32.633177 3.129042
2005-01-26 08:50:07 51°11.992 2°37.657 5.622 3.211771 32.649431 3.129042
2005-01-26 08:50:12 51°12.007 2°37.672 5.6197 3.210718 32.637573 3.129042
2005-01-26 08:50:18 51°12.024 2°37.688 5.6205 3.210718 32.636734 3.129042
2005-01-26 08:50:23 51°12.036 2°37.701 5.6233 3.210718 32.636734 3.129042
2005-01-26 08:50:28 51°12.051 2°37.716 5.6213 3.210613 32.638066 3.23017
2005-01-26 08:50:33 51°12.063 2°37.727 5.6164 3.210508 32.63772 3.129042
2005-01-26 08:50:38 51°12.078 2°37.742 5.613 3.209139 32.622304 3.162751
2005-01-26 08:50:43 51°12.09 2°37.754 5.6128 3.209455 32.626701 3.162751
2005-01-26 08:50:48 51°12.105 2°37.768 5.6112 3.209139 32.624821 3.23017
2005-01-26 08:50:52 51°12.116 2°37.779 5.6089 3.209139 32.624821 3.23017
2005-01-26 08:50:58 51°12.131 2°37.794 5.6092 3.20956 32.629565 3.23017
2005-01-26 08:51:03 51°12.144 2°37.808 5.6075 3.209349 32.628032 3.23017
2005-01-26 08:51:08 51°12.159 2°37.824 5.6015 3.207138 32.605646 3.23017
2005-01-26 08:51:13 51°12.172 2°37.836 5.5986 3.207454 32.61172 3.23017
2005-01-26 08:51:18 51°12.186 2°37.851 5.5959 3.206717 32.605096 3.162751
2005-01-26 08:51:23 51°12.2 2°37.864 5.5937 3.206717 32.605096 3.162751
2005-01-26 08:51:28 51°12.214 2°37.878 5.5925 3.207559 32.615423 3.162751
2005-01-26 08:51:33 51°12.228 2°37.89 5.5945 3.206401 32.605732 3.162751
2005-01-26 08:51:38 51°12.242 2°37.904 5.5913 3.206612 32.609782 3.19646
2005-01-26 08:51:43 51°12.255 2°37.916 5.5917 3.204927 32.594997 3.23017
2005-01-26 08:51:48 51°12.269 2°37.929 5.5863 3.204611 32.594794 3.162751
2005-01-26 08:51:53 51°12.283 2°37.944 5.5854 3.204611 32.594794 3.162751
2005-01-26 08:51:58 51°12.297 2°37.957 5.5832 3.203347 32.583074 3.095332
2005-01-26 08:52:03 51°12.309 2°37.967 5.5806 3.203874 32.591523 3.027913
2005-01-26 08:52:08 51°12.324 2°37.982 5.5866 3.203768 32.591175 3.027913
2005-01-26 08:52:13 51°12.338 2°37.995 5.5856 3.203768 32.592014 3.061623
2005-01-26 08:52:18 51°12.352 2°38.009 5.5833 3.203558 32.59048 2.926785
2005-01-26 08:52:23 51°12.364 2°38.021 5.5834 3.203558 32.59048 2.926785
2005-01-26 08:52:28 51°12.379 2°38.035 5.5797 3.201662 32.570799 2.926785
2005-01-26 08:52:33 51°12.393 2°38.048 5.5829 3.201031 32.566195 2.893076
2005-01-26 08:52:38 51°12.406 2°38.061 5.5787 3.2024 32.584139 2.926785
2005-01-26 08:52:43 51°12.42 2°38.075 5.5808 3.201663 32.575831 2.960494
2005-01-26 08:52:48 51°12.434 2°38.088 5.5812 3.202189 32.580926 2.893076
2005-01-26 08:52:52 51°12.444 2°38.098 5.581 3.202189 32.580926 2.893076
2005-01-26 08:52:58 51°12.461 2°38.115 5.5755 3.201031 32.56955 2.960494
2005-01-26 08:53:03 51°12.474 2°38.127 5.5758 3.200715 32.565151 3.061623
2005-01-26 08:53:08 51°12.488 2°38.141 5.5723 3.202294 32.58463 3.027913
2005-01-26 08:53:12 51°12.498 2°38.152 5.5697 3.202189 32.584282 3.061623
2005-01-26 08:53:18 51°12.515 2°38.168 5.5665 3.201873 32.5824 3.095332
2005-01-26 08:53:23 51°12.529 2°38.181 5.5618 3.201873 32.5824 3.095332
2005-01-26 08:53:28 51°12.543 2°38.194 5.5629 3.201347 32.575627 3.19646
2005-01-26 08:53:32 51°12.554 2°38.205 5.5659 3.200083 32.563901 3.19646
2005-01-26 08:53:38 51°12.571 2°38.22 5.5609 3.198925 32.552523 3.19646
2005-01-26 08:53:43 51°12.585 2°38.232 5.5602 3.198925 32.553361 3.19646
2005-01-26 08:53:48 51°12.6 2°38.244 5.5636 3.199451 32.563489 3.23017
2005-01-26 08:53:53 51°12.614 2°38.256 5.5656 3.199451 32.563489 3.23017
2005-01-26 08:53:58 51°12.628 2°38.267 5.5687 3.197556 32.544638 3.19646
2005-01-26 08:54:03 51°12.64 2°38.277 5.5678 3.198504 32.557838 3.129042
2005-01-26 08:54:08 51°12.657 2°38.29 5.5698 3.197661 32.550018 3.162751
2005-01-26 08:54:13 51°12.671 2°38.301 5.5656 3.197977 32.554419 3.162751
2005-01-26 08:54:18 51°12.685 2°38.313 5.5652 3.197556 32.551347 3.129042
2005-01-26 08:54:23 51°12.698 2°38.324 5.565 3.197556 32.551347 3.129042
2005-01-26 08:54:28 51°12.713 2°38.336 5.5685 3.197661 32.550857 3.19646
2005-01-26 08:54:33 51°12.728 2°38.349 5.5658 3.197029 32.542895 3.19646
2005-01-26 08:54:38 51°12.742 2°38.361 5.5657 3.197977 32.551902 3.162751
2005-01-26 08:54:43 51°12.755 2°38.372 5.5627 3.19882 32.560561 3.19646
2005-01-26 08:54:48 51°12.77 2°38.384 5.5616 3.197767 32.550367 3.23017
2005-01-26 08:54:53 51°12.784 2°38.395 5.5653 3.197767 32.550367 3.23017
2005-01-26 08:54:58 51°12.798 2°38.407 5.5642 3.198398 32.556651 3.162751
2005-01-26 08:55:03 51°12.813 2°38.419 5.5659 3.198293 32.554625 3.263879
2005-01-26 08:55:08 51°12.827 2°38.431 5.5634 3.198082 32.55309 3.19646
2005-01-26 08:55:12 51°12.838 2°38.44 5.5663 3.198293 32.556303 3.162751
2005-01-26 08:55:18 51°12.856 2°38.454 5.5624 3.197977 32.554419 3.095332
2005-01-26 08:55:23 51°12.869 2°38.464 5.5604 3.197977 32.554419 3.095332
2005-01-26 08:55:28 51°12.885 2°38.477 5.5583 3.198188 32.556793 3.129042
2005-01-26 08:55:32 51°12.897 2°38.487 5.5613 3.198293 32.557142 3.129042
2005-01-26 08:55:38 51°12.914 2°38.5 5.5616 3.198504 32.559516 3.027913
2005-01-26 08:55:43 51°12.927 2°38.51 5.5587 3.198398 32.559168 3.061623
2005-01-26 08:55:48 51°12.944 2°38.522 5.5561 3.197977 32.554419 2.926785
2005-01-26 08:55:53 51°12.959 2°38.532 5.5592 3.197977 32.554419 2.926785
2005-01-26 08:55:58 51°12.975 2°38.541 5.5566 3.197661 32.552534 2.926785
2005-01-26 08:56:03 51°12.99 2°38.55 5.5591 3.197345 32.549811 2.859366
2005-01-26 08:56:08 51°13.005 2°38.559 5.5547 3.197029 32.547088 2.825657
2005-01-26 08:56:13 51°13.021 2°38.567 5.558 3.197556 32.553025 2.893076
2005-01-26 08:56:18 51°13.037 2°38.575 5.5506 3.196924 32.54674 2.859366
2005-01-26 08:56:23 51°13.05 2°38.582 5.5487 3.196924 32.54674 2.859366
2005-01-26 08:56:28 51°13.067 2°38.592 5.5439 3.196082 32.539757 2.758238
2005-01-26 08:56:32 51°13.08 2°38.599 5.541 3.196924 32.547578 2.893076
2005-01-26 08:56:38 51°13.099 2°38.609 5.5372 3.196398 32.54248 2.758238
2005-01-26 08:56:43 51°13.112 2°38.616 5.5372 3.195134 32.527394 2.758238
2005-01-26 08:56:48 51°13.13 2°38.625 5.5317 3.196608 32.544855 2.65711